Observation data for Fritch on 12/09/2018      Previous  Date       Current Mesonet Observations  Soil Data  Daily Summary Page  Observations in Plain Language
KFR1 090600Z 05001KT M03/M06 A3031 RMK A01 T10331058  RH  082%=      5-min Rain = 0
KFR1 090601Z 02001KT M03/M06 A3031 RMK A01 T10331059  RH  082%=      5-min Rain = 0
KFR1 090602Z 02002KT M03/M06 A3031 RMK A01 T10321058  RH  082%=      5-min Rain = 0
KFR1 090603Z 03002KT M03/M06 A3031 RMK A01 T10321058  RH  083%=      5-min Rain = 0
KFR1 090604Z 03001KT M03/M06 A3031 RMK A01 T10321058  RH  082%=      5-min Rain = 0
KFR1 090605Z 03001KT M03/M06 A3031 RMK A01 T10321058  RH  082%=      5-min Rain = 0
KFR1 090606Z 03001KT M03/M06 A3031 RMK A01 T10321058  RH  082%=      5-min Rain = 0
KFR1 090607Z 05001KT M03/M06 A3031 RMK A01 T10321058  RH  083%=      5-min Rain = 0
KFR1 090608Z 08001KT M03/M06 A3031 RMK A01 T10321057  RH  083%=      5-min Rain = 0
KFR1 090609Z 08000KT M03/M06 A3031 RMK A01 T10331058  RH  082%=      5-min Rain = 0
KFR1 090610Z 00000KT M03/M06 A3031 RMK A01 T10331058  RH  082%=      5-min Rain = 0
KFR1 090611Z 00000KT M03/M06 A3031 RMK A01 T10341061  RH  082%=      5-min Rain = 0
KFR1 090612Z 00000KT M04/M06 A3031 RMK A01 T10351062  RH  082%=      5-min Rain = 0
KFR1 090613Z 00000KT M04/M06 A3031 RMK A01 T10361061  RH  083%=      5-min Rain = 0
KFR1 090614Z 00000KT M04/M06 A3031 RMK A01 T10361060  RH  084%=      5-min Rain = 0
KFR1 090615Z 00000KT M04/M06 A3031 RMK A01 T10361059  RH  084%=      5-min Rain = 0
KFR1 090616Z 00000KT M04/M06 A3031 RMK A01 T10361059  RH  084%=      5-min Rain = 0
KFR1 090617Z 00000KT M04/M06 A3031 RMK A01 T10361059  RH  084%=      5-min Rain = 0
KFR1 090618Z 33000KT M04/M06 A3031 RMK A01 T10371059  RH  085%=      5-min Rain = 0
KFR1 090619Z 33001KT M04/M06 A3032 RMK A01 T10371059  RH  085%=      5-min Rain = 0
KFR1 090620Z 33001KT M04/M06 A3032 RMK A01 T10371059  RH  085%=      5-min Rain = 0
KFR1 090621Z 33002KT M04/M06 A3032 RMK A01 T10361058  RH  085%=      5-min Rain = 0
KFR1 090622Z 32002KT M04/M06 A3032 RMK A01 T10351057  RH  085%=      5-min Rain = 0
KFR1 090623Z 32002KT M03/M06 A3032 RMK A01 T10341057  RH  084%=      5-min Rain = 0
KFR1 090624Z 31002KT M03/M06 A3032 RMK A01 T10331058  RH  083%=      5-min Rain = 0
KFR1 090625Z 31002KT M03/M06 A3031 RMK A01 T10331058  RH  083%=      5-min Rain = 0
KFR1 090626Z 33002KT M03/M06 A3031 RMK A01 T10331059  RH  082%=      5-min Rain = 0
KFR1 090627Z 33002KT M03/M06 A3031 RMK A01 T10331059  RH  082%=      5-min Rain = 0
KFR1 090628Z 31003KT M03/M06 A3032 RMK A01 T10331059  RH  082%=      5-min Rain = 0
KFR1 090629Z 30003KT M03/M06 A3032 RMK A01 T10331059  RH  082%=      5-min Rain = 0
KFR1 090630Z 30003KT M03/M06 A3032 RMK A01 T10331060  RH  082%=      5-min Rain = 0
KFR1 090631Z 29003KT M03/M06 A3032 RMK A01 T10331059  RH  082%=      5-min Rain = 0
KFR1 090632Z 28003KT M03/M06 A3032 RMK A01 T10341060  RH  082%=      5-min Rain = 0
KFR1 090633Z 28003KT M04/M06 A3032 RMK A01 T10351061  RH  082%=      5-min Rain = 0
KFR1 090634Z 28004KT M04/M06 A3032 RMK A01 T10361063  RH  081%=      5-min Rain = 0
KFR1 090635Z 27003KT M04/M07 A3032 RMK A01 T10371066  RH  080%=      5-min Rain = 0
KFR1 090636Z 27004KT M04/M07 A3032 RMK A01 T10371067  RH  080%=      5-min Rain = 0
KFR1 090637Z 26005KT M04/M07 A3032 RMK A01 T10381069  RH  079%=      5-min Rain = 0
KFR1 090638Z 26006KT M04/M07 A3032 RMK A01 T10391067  RH  080%=      5-min Rain = 0
KFR1 090639Z 25006KT M04/M07 A3032 RMK A01 T10401067  RH  081%=      5-min Rain = 0
KFR1 090640Z 25006KT M04/M07 A3032 RMK A01 T10411067  RH  082%=      5-min Rain = 0
KFR1 090641Z 25006KT M04/M07 A3032 RMK A01 T10421069  RH  082%=      5-min Rain = 0
KFR1 090642Z 24006KT M04/M07 A3032 RMK A01 T10441072  RH  080%=      5-min Rain = 0
KFR1 090643Z 24006KT M05/M08 A3032 RMK A01 T10451075  RH  080%=      5-min Rain = 0
KFR1 090644Z 24005KT M05/M08 A3032 RMK A01 T10451075  RH  080%=      5-min Rain = 0
KFR1 090645Z 22005KT M05/M08 A3032 RMK A01 T10461075  RH  080%=      5-min Rain = 0
KFR1 090646Z 22004KT M05/M07 A3032 RMK A01 T10451074  RH  080%=      5-min Rain = 0
KFR1 090647Z 22004KT M05/M07 A3032 RMK A01 T10451074  RH  080%=      5-min Rain = 0
KFR1 090648Z 22004KT M05/M08 A3032 RMK A01 T10461075  RH  080%=      5-min Rain = 0
KFR1 090649Z 22004KT M05/M08 A3032 RMK A01 T10471077  RH  080%=      5-min Rain = 0
KFR1 090650Z 21004KT M05/M08 A3032 RMK A01 T10481077  RH  080%=      5-min Rain = 0
KFR1 090651Z 21004KT M05/M08 A3032 RMK A01 T10471077  RH  080%=      5-min Rain = 0
KFR1 090652Z 21003KT M05/M08 A3032 RMK A01 T10471076  RH  080%=      5-min Rain = 0
KFR1 090653Z 21003KT M05/M08 A3032 RMK A01 T10461077  RH  079%=      5-min Rain = 0
KFR1 090654Z 21003KT M05/M08 A3032 RMK A01 T10461077  RH  079%=      5-min Rain = 0
KFR1 090655Z 21003KT M05/M08 A3032 RMK A01 T10471077  RH  079%=      5-min Rain = 0
KFR1 090656Z 22002KT M05/M08 A3032 RMK A01 T10471077  RH  080%=      5-min Rain = 0
KFR1 090657Z 23002KT M05/M08 A3032 RMK A01 T10471076  RH  080%=      5-min Rain = 0
KFR1 090658Z 23003KT M05/M08 A3032 RMK A01 T10471076  RH  080%=      5-min Rain = 0
KFR1 090659Z 24003KT M05/M08 A3032 RMK A01 T10471077  RH  080%=      5-min Rain = 0
KFR1 090700Z 26003KT M05/M08 A3032 RMK A01 T10461077  RH  079%=      5-min Rain = 0
KFR1 090701Z 26003KT M05/M08 A3032 RMK A01 T10461077  RH  079%=      5-min Rain = 0
KFR1 090702Z 26003KT M05/M08 A3032 RMK A01 T10461076  RH  079%=      5-min Rain = 0
KFR1 090703Z 25003KT M05/M08 A3032 RMK A01 T10451076  RH  079%=      5-min Rain = 0
KFR1 090704Z 25003KT M05/M08 A3032 RMK A01 T10451076  RH  079%=      5-min Rain = 0
KFR1 090705Z 26003KT M05/M08 A3032 RMK A01 T10451077  RH  078%=      5-min Rain = 0
KFR1 090706Z 26003KT M05/M08 A3032 RMK A01 T10451077  RH  078%=      5-min Rain = 0
KFR1 090707Z 27003KT M05/M08 A3032 RMK A01 T10451078  RH  078%=      5-min Rain = 0
KFR1 090708Z 26003KT M05/M08 A3032 RMK A01 T10451078  RH  078%=      5-min Rain = 0
KFR1 090709Z 26003KT M05/M08 A3032 RMK A01 T10451077  RH  078%=      5-min Rain = 0
KFR1 090710Z 26003KT M05/M08 A3032 RMK A01 T10451077  RH  078%=      5-min Rain = 0
KFR1 090711Z 26003KT M05/M08 A3032 RMK A01 T10451077  RH  078%=      5-min Rain = 0
KFR1 090712Z 26003KT M04/M08 A3032 RMK A01 T10441076  RH  078%=      5-min Rain = 0
KFR1 090713Z 26003KT M04/M08 A3032 RMK A01 T10441077  RH  078%=      5-min Rain = 0
KFR1 090714Z 26003KT M04/M08 A3032 RMK A01 T10441077  RH  078%=      5-min Rain = 0
KFR1 090715Z 26002KT M04/M08 A3032 RMK A01 T10441077  RH  078%=      5-min Rain = 0
KFR1 090716Z 26002KT M04/M08 A3032 RMK A01 T10431077  RH  078%=      5-min Rain = 0
KFR1 090717Z 26002KT M04/M08 A3032 RMK A01 T10441077  RH  078%=      5-min Rain = 0
KFR1 090718Z 26002KT M04/M08 A3032 RMK A01 T10441077  RH  077%=      5-min Rain = 0
KFR1 090719Z 27002KT M04/M08 A3032 RMK A01 T10431077  RH  077%=      5-min Rain = 0
KFR1 090720Z 28002KT M04/M08 A3032 RMK A01 T10431077  RH  077%=      5-min Rain = 0
KFR1 090721Z 28002KT M04/M08 A3032 RMK A01 T10431077  RH  077%=      5-min Rain = 0
KFR1 090722Z 28002KT M04/M08 A3032 RMK A01 T10431077  RH  077%=      5-min Rain = 0
KFR1 090723Z 28002KT M04/M08 A3032 RMK A01 T10421077  RH  077%=      5-min Rain = 0
KFR1 090724Z 29001KT M04/M08 A3032 RMK A01 T10421077  RH  077%=      5-min Rain = 0
KFR1 090725Z 29001KT M04/M08 A3032 RMK A01 T10421077  RH  077%=      5-min Rain = 0
KFR1 090726Z 29001KT M04/M08 A3032 RMK A01 T10411076  RH  077%=      5-min Rain = 0
KFR1 090727Z 29001KT M04/M08 A3032 RMK A01 T10411075  RH  077%=      5-min Rain = 0
KFR1 090728Z 31001KT M04/M08 A3032 RMK A01 T10411075  RH  077%=      5-min Rain = 0
KFR1 090729Z 33001KT M04/M08 A3032 RMK A01 T10411075  RH  077%=      5-min Rain = 0
KFR1 090730Z 02001KT M04/M08 A3031 RMK A01 T10421076  RH  077%=      5-min Rain = 0
KFR1 090731Z 05001KT M04/M08 A3031 RMK A01 T10431077  RH  077%=      5-min Rain = 0
KFR1 090732Z 04001KT M04/M08 A3031 RMK A01 T10431077  RH  077%=      5-min Rain = 0
KFR1 090733Z 04002KT M04/M08 A3031 RMK A01 T10431077  RH  078%=      5-min Rain = 0
KFR1 090734Z 04001KT M04/M08 A3031 RMK A01 T10431076  RH  078%=      5-min Rain = 0
KFR1 090735Z 04002KT M04/M08 A3031 RMK A01 T10431076  RH  078%=      5-min Rain = 0
KFR1 090736Z 05002KT M04/M08 A3031 RMK A01 T10431075  RH  078%=      5-min Rain = 0
KFR1 090737Z 05002KT M04/M08 A3031 RMK A01 T10441075  RH  078%=      5-min Rain = 0
KFR1 090738Z 06002KT M04/M08 A3031 RMK A01 T10441075  RH  079%=      5-min Rain = 0
KFR1 090739Z 05002KT M04/M08 A3031 RMK A01 T10441076  RH  079%=      5-min Rain = 0
KFR1 090740Z 05001KT M05/M08 A3031 RMK A01 T10451076  RH  079%=      5-min Rain = 0
KFR1 090741Z 05001KT M05/M08 A3031 RMK A01 T10451075  RH  079%=      5-min Rain = 0
KFR1 090742Z 05001KT M05/M08 A3031 RMK A01 T10451075  RH  079%=      5-min Rain = 0
KFR1 090743Z 05001KT M04/M07 A3031 RMK A01 T10441074  RH  080%=      5-min Rain = 0
KFR1 090744Z 04001KT M04/M07 A3031 RMK A01 T10431073  RH  080%=      5-min Rain = 0
KFR1 090745Z 03001KT M04/M07 A3031 RMK A01 T10431073  RH  079%=      5-min Rain = 0
KFR1 090746Z 02001KT M04/M07 A3031 RMK A01 T10421073  RH  079%=      5-min Rain = 0
KFR1 090747Z 03002KT M04/M07 A3031 RMK A01 T10421073  RH  079%=      5-min Rain = 0
KFR1 090748Z 03002KT M04/M07 A3031 RMK A01 T10421073  RH  079%=      5-min Rain = 0
KFR1 090749Z 02001KT M04/M07 A3031 RMK A01 T10421072  RH  079%=      5-min Rain = 0
KFR1 090750Z 35001KT M04/M07 A3031 RMK A01 T10411071  RH  080%=      5-min Rain = 0
KFR1 090751Z 33001KT M04/M07 A3031 RMK A01 T10421072  RH  079%=      5-min Rain = 0
KFR1 090752Z 33002KT M04/M08 A3031 RMK A01 T10431075  RH  078%=      5-min Rain = 0
KFR1 090753Z 33002KT M04/M08 A3031 RMK A01 T10441076  RH  078%=      5-min Rain = 0
KFR1 090754Z 31002KT M05/M08 A3031 RMK A01 T10451078  RH  078%=      5-min Rain = 0
KFR1 090755Z 30002KT M05/M08 A3031 RMK A01 T10471078  RH  078%=      5-min Rain = 0
KFR1 090756Z 29002KT M05/M08 A3031 RMK A01 T10471076  RH  080%=      5-min Rain = 0
KFR1 090757Z 29002KT M05/M07 A3031 RMK A01 T10461074  RH  081%=      5-min Rain = 0
KFR1 090758Z 29002KT M05/M07 A3031 RMK A01 T10461071  RH  082%=      5-min Rain = 0
KFR1 090759Z 28002KT M05/M07 A3031 RMK A01 T10451070  RH  083%=      5-min Rain = 0
KFR1 090800Z 27003KT M04/M07 A3031 RMK A01 T10441068  RH  083%=      5-min Rain = 0
KFR1 090801Z 28002KT M04/M07 A3031 RMK A01 T10441068  RH  083%=      5-min Rain = 0
KFR1 090802Z 28002KT M04/M07 A3032 RMK A01 T10431068  RH  083%=      5-min Rain = 0
KFR1 090803Z 28002KT M04/M07 A3032 RMK A01 T10431068  RH  083%=      5-min Rain = 0
KFR1 090804Z 29002KT M04/M07 A3032 RMK A01 T10431069  RH  082%=      5-min Rain = 0
KFR1 090805Z 29002KT M04/M07 A3032 RMK A01 T10431069  RH  082%=      5-min Rain = 0
KFR1 090806Z 29002KT M04/M07 A3032 RMK A01 T10431069  RH  082%=      5-min Rain = 0
KFR1 090807Z 30001KT M04/M07 A3032 RMK A01 T10431068  RH  083%=      5-min Rain = 0
KFR1 090808Z 28002KT M04/M07 A3032 RMK A01 T10431067  RH  083%=      5-min Rain = 0
KFR1 090809Z 28002KT M04/M07 A3032 RMK A01 T10431067  RH  083%=      5-min Rain = 0
KFR1 090810Z 29003KT M04/M07 A3032 RMK A01 T10431067  RH  083%=      5-min Rain = 0
KFR1 090811Z 29003KT M04/M07 A3032 RMK A01 T10441068  RH  083%=      5-min Rain = 0
KFR1 090812Z 29003KT M04/M07 A3032 RMK A01 T10441069  RH  083%=      5-min Rain = 0
KFR1 090813Z 29003KT M05/M07 A3032 RMK A01 T10451070  RH  083%=      5-min Rain = 0
KFR1 090814Z 29003KT M05/M07 A3032 RMK A01 T10451070  RH  083%=      5-min Rain = 0
KFR1 090815Z 29003KT M05/M07 A3032 RMK A01 T10461070  RH  083%=      5-min Rain = 0
KFR1 090816Z 29002KT M05/M07 A3032 RMK A01 T10461070  RH  083%=      5-min Rain = 0
KFR1 090817Z 29002KT M05/M07 A3032 RMK A01 T10461071  RH  083%=      5-min Rain = 0
KFR1 090818Z 29003KT M05/M07 A3032 RMK A01 T10461071  RH  083%=      5-min Rain = 0
KFR1 090819Z 29003KT M05/M07 A3032 RMK A01 T10461071  RH  083%=      5-min Rain = 0
KFR1 090820Z 29003KT M05/M07 A3032 RMK A01 T10471072  RH  082%=      5-min Rain = 0
KFR1 090821Z 29003KT M05/M07 A3032 RMK A01 T10471072  RH  082%=      5-min Rain = 0
KFR1 090822Z 29002KT M05/M07 A3032 RMK A01 T10471073  RH  082%=      5-min Rain = 0
KFR1 090823Z 29002KT M05/M07 A3032 RMK A01 T10471073  RH  083%=      5-min Rain = 0
KFR1 090824Z 29002KT M05/M07 A3032 RMK A01 T10481073  RH  083%=      5-min Rain = 0
KFR1 090825Z 28003KT M05/M07 A3032 RMK A01 T10481073  RH  082%=      5-min Rain = 0
KFR1 090826Z 29003KT M05/M07 A3032 RMK A01 T10481074  RH  082%=      5-min Rain = 0
KFR1 090827Z 29003KT M05/M08 A3032 RMK A01 T10481075  RH  082%=      5-min Rain = 0
KFR1 090828Z 29002KT M05/M08 A3032 RMK A01 T10491075  RH  082%=      5-min Rain = 0
KFR1 090829Z 29002KT M05/M08 A3032 RMK A01 T10481075  RH  082%=      5-min Rain = 0
KFR1 090830Z 29002KT M05/M07 A3032 RMK A01 T10481074  RH  082%=      5-min Rain = 0
KFR1 090831Z 29002KT M05/M07 A3032 RMK A01 T10481074  RH  082%=      5-min Rain = 0
KFR1 090832Z 28002KT M05/M07 A3032 RMK A01 T10471074  RH  082%=      5-min Rain = 0
KFR1 090833Z 28002KT M05/M07 A3032 RMK A01 T10471073  RH  082%=      5-min Rain = 0
KFR1 090834Z 28002KT M05/M07 A3032 RMK A01 T10471072  RH  083%=      5-min Rain = 0
KFR1 090835Z 27001KT M05/M07 A3032 RMK A01 T10471072  RH  083%=      5-min Rain = 0
KFR1 090836Z 28002KT M05/M07 A3032 RMK A01 T10461071  RH  083%=      5-min Rain = 0
KFR1 090837Z 30001KT M05/M07 A3032 RMK A01 T10471072  RH  083%=      5-min Rain = 0
KFR1 090838Z 33001KT M05/M07 A3032 RMK A01 T10471072  RH  083%=      5-min Rain = 0
KFR1 090839Z 33002KT M05/M07 A3032 RMK A01 T10471071  RH  083%=      5-min Rain = 0
KFR1 090840Z 34002KT M05/M07 A3032 RMK A01 T10461069  RH  084%=      5-min Rain = 0
KFR1 090841Z 33002KT M05/M07 A3032 RMK A01 T10461068  RH  085%=      5-min Rain = 0
KFR1 090842Z 34002KT M05/M07 A3032 RMK A01 T10461067  RH  085%=      5-min Rain = 0
KFR1 090843Z 35002KT M05/M07 A3032 RMK A01 T10451067  RH  085%=      5-min Rain = 0
KFR1 090844Z 34002KT M05/M07 A3032 RMK A01 T10451066  RH  085%=      5-min Rain = 0
KFR1 090845Z 34002KT M05/M07 A3032 RMK A01 T10451066  RH  085%=      5-min Rain = 0
KFR1 090846Z 33002KT M05/M07 A3032 RMK A01 T10451066  RH  085%=      5-min Rain = 0
KFR1 090847Z 32002KT M05/M07 A3032 RMK A01 T10451067  RH  085%=      5-min Rain = 0
KFR1 090848Z 33002KT M05/M07 A3032 RMK A01 T10461068  RH  085%=      5-min Rain = 0
KFR1 090849Z 32002KT M05/M07 A3032 RMK A01 T10461067  RH  085%=      5-min Rain = 0
KFR1 090850Z 32002KT M05/M07 A3032 RMK A01 T10461067  RH  085%=      5-min Rain = 0
KFR1 090851Z 33002KT M05/M07 A3032 RMK A01 T10461067  RH  086%=      5-min Rain = 0
KFR1 090852Z 35001KT M05/M07 A3032 RMK A01 T10461066  RH  086%=      5-min Rain = 0
KFR1 090853Z 01002KT M05/M07 A3031 RMK A01 T10461066  RH  086%=      5-min Rain = 0
KFR1 090854Z 02002KT M05/M07 A3031 RMK A01 T10461066  RH  086%=      5-min Rain = 0
KFR1 090855Z 01001KT M05/M07 A3031 RMK A01 T10461065  RH  087%=      5-min Rain = 0
KFR1 090856Z 35001KT M05/M07 A3031 RMK A01 T10461065  RH  087%=      5-min Rain = 0
KFR1 090857Z 33001KT M05/M06 A3031 RMK A01 T10461064  RH  087%=      5-min Rain = 0
KFR1 090858Z 32001KT M05/M06 A3032 RMK A01 T10461064  RH  087%=      5-min Rain = 0
KFR1 090859Z 31002KT M05/M06 A3032 RMK A01 T10451064  RH  087%=      5-min Rain = 0
KFR1 090900Z 32002KT M05/M06 A3032 RMK A01 T10451064  RH  087%=      5-min Rain = 0
KFR1 090901Z 31002KT M05/M06 A3032 RMK A01 T10451064  RH  087%=      5-min Rain = 0
KFR1 090902Z 30003KT M05/M07 A3032 RMK A01 T10451065  RH  086%=      5-min Rain = 0
KFR1 090903Z 30003KT M05/M06 A3032 RMK A01 T10451064  RH  086%=      5-min Rain = 0
KFR1 090904Z 30003KT M05/M07 A3032 RMK A01 T10451065  RH  086%=      5-min Rain = 0
KFR1 090905Z 30003KT M05/M07 A3032 RMK A01 T10451065  RH  086%=      5-min Rain = 0
KFR1 090906Z 30003KT M05/M07 A3032 RMK A01 T10451066  RH  086%=      5-min Rain = 0
KFR1 090907Z 30003KT M05/M07 A3031 RMK A01 T10451066  RH  085%=      5-min Rain = 0
KFR1 090908Z 30002KT M05/M07 A3031 RMK A01 T10451066  RH  085%=      5-min Rain = 0
KFR1 090909Z 30002KT M05/M07 A3031 RMK A01 T10451066  RH  085%=      5-min Rain = 0
KFR1 090910Z 30002KT M05/M07 A3031 RMK A01 T10451066  RH  085%=      5-min Rain = 0
KFR1 090911Z 30002KT M05/M07 A3031 RMK A01 T10451066  RH  085%=      5-min Rain = 0
KFR1 090912Z 29001KT M05/M07 A3031 RMK A01 T10451066  RH  085%=      5-min Rain = 0
KFR1 090913Z 29001KT M05/M07 A3031 RMK A01 T10451066  RH  085%=      5-min Rain = 0
KFR1 090914Z 30002KT M05/M07 A3031 RMK A01 T10451065  RH  085%=      5-min Rain = 0
KFR1 090915Z 30003KT M05/M07 A3031 RMK A01 T10451066  RH  085%=      5-min Rain = 0
KFR1 090916Z 31003KT M04/M07 A3031 RMK A01 T10441065  RH  086%=      5-min Rain = 0
KFR1 090917Z 31003KT M04/M06 A3031 RMK A01 T10431064  RH  086%=      5-min Rain = 0
KFR1 090918Z 31003KT M04/M06 A3031 RMK A01 T10431064  RH  085%=      5-min Rain = 0
KFR1 090919Z 30003KT M04/M07 A3031 RMK A01 T10441065  RH  085%=      5-min Rain = 0
KFR1 090920Z 30004KT M04/M07 A3031 RMK A01 T10431065  RH  085%=      5-min Rain = 0
KFR1 090921Z 31003KT M04/M06 A3031 RMK A01 T10431064  RH  085%=      5-min Rain = 0
KFR1 090922Z 30004KT M04/M06 A3031 RMK A01 T10431064  RH  085%=      5-min Rain = 0
KFR1 090923Z 29004KT M04/M07 A3031 RMK A01 T10431065  RH  085%=      5-min Rain = 0
KFR1 090924Z 28004KT M05/M07 A3031 RMK A01 T10451067  RH  085%=      5-min Rain = 0
KFR1 090925Z 28004KT M05/M07 A3031 RMK A01 T10471069  RH  084%=      5-min Rain = 0
KFR1 090926Z 28003KT M05/M07 A3031 RMK A01 T10481071  RH  084%=      5-min Rain = 0
KFR1 090927Z 27003KT M05/M07 A3031 RMK A01 T10491071  RH  084%=      5-min Rain = 0
KFR1 090928Z 27003KT M05/M07 A3031 RMK A01 T10491071  RH  085%=      5-min Rain = 0
KFR1 090929Z 27002KT M05/M07 A3031 RMK A01 T10491071  RH  085%=      5-min Rain = 0
KFR1 090930Z 27003KT M05/M07 A3031 RMK A01 T10501070  RH  085%=      5-min Rain = 0
KFR1 090931Z 26003KT M05/M07 A3031 RMK A01 T10491070  RH  086%=      5-min Rain = 0
KFR1 090932Z 27003KT M05/M07 A3031 RMK A01 T10491070  RH  086%=      5-min Rain = 0
KFR1 090933Z 27003KT M05/M07 A3031 RMK A01 T10491069  RH  086%=      5-min Rain = 0
KFR1 090934Z 27003KT M05/M07 A3032 RMK A01 T10491069  RH  086%=      5-min Rain = 0
KFR1 090935Z 26003KT M05/M07 A3032 RMK A01 T10491068  RH  086%=      5-min Rain = 0
KFR1 090936Z 25002KT M05/M07 A3032 RMK A01 T10481067  RH  086%=      5-min Rain = 0
KFR1 090937Z 24001KT M05/M07 A3032 RMK A01 T10481068  RH  086%=      5-min Rain = 0
KFR1 090938Z 24001KT M05/M07 A3032 RMK A01 T10481068  RH  086%=      5-min Rain = 0
KFR1 090939Z 25000KT M05/M07 A3031 RMK A01 T10491068  RH  086%=      5-min Rain = 0
KFR1 090940Z 27001KT M05/M07 A3032 RMK A01 T10491068  RH  086%=      5-min Rain = 0
KFR1 090941Z 28001KT M05/M07 A3032 RMK A01 T10481068  RH  086%=      5-min Rain = 0
KFR1 090942Z 28002KT M05/M07 A3032 RMK A01 T10481068  RH  086%=      5-min Rain = 0
KFR1 090943Z 28002KT M05/M07 A3032 RMK A01 T10481067  RH  086%=      5-min Rain = 0
KFR1 090944Z 27002KT M05/M07 A3032 RMK A01 T10481068  RH  086%=      5-min Rain = 0
KFR1 090945Z 25002KT M05/M07 A3032 RMK A01 T10481068  RH  086%=      5-min Rain = 0
KFR1 090946Z 24002KT M05/M07 A3032 RMK A01 T10481069  RH  085%=      5-min Rain = 0
KFR1 090947Z 23001KT M05/M07 A3032 RMK A01 T10491071  RH  085%=      5-min Rain = 0
KFR1 090948Z 22001KT M05/M07 A3032 RMK A01 T10511073  RH  084%=      5-min Rain = 0
KFR1 090949Z 20001KT M05/M08 A3032 RMK A01 T10521075  RH  084%=      5-min Rain = 0
KFR1 090950Z 21002KT M05/M08 A3032 RMK A01 T10531076  RH  084%=      5-min Rain = 0
KFR1 090951Z 21002KT M05/M08 A3032 RMK A01 T10541077  RH  084%=      5-min Rain = 0
KFR1 090952Z 20002KT M06/M08 A3032 RMK A01 T10561078  RH  084%=      5-min Rain = 0
KFR1 090953Z 19003KT M06/M08 A3032 RMK A01 T10571079  RH  084%=      5-min Rain = 0
KFR1 090954Z 19002KT M06/M08 A3032 RMK A01 T10581080  RH  084%=      5-min Rain = 0
KFR1 090955Z 20002KT M06/M08 A3032 RMK A01 T10591081  RH  084%=      5-min Rain = 0
KFR1 090956Z 21001KT M06/M08 A3032 RMK A01 T10591081  RH  084%=      5-min Rain = 0
KFR1 090957Z 22001KT M06/M08 A3032 RMK A01 T10601082  RH  084%=      5-min Rain = 0
KFR1 090958Z 24001KT M06/M08 A3032 RMK A01 T10601082  RH  085%=      5-min Rain = 0
KFR1 090959Z 25001KT M06/M08 A3032 RMK A01 T10601082  RH  085%=      5-min Rain = 0
KFR1 091000Z 27002KT M06/M08 A3032 RMK A01 T10601082  RH  085%=      5-min Rain = 0
KFR1 091001Z 27003KT M06/M08 A3032 RMK A01 T10591081  RH  084%=      5-min Rain = 0
KFR1 091002Z 29003KT M06/M08 A3032 RMK A01 T10581079  RH  085%=      5-min Rain = 0
KFR1 091003Z 28003KT M06/M08 A3032 RMK A01 T10561076  RH  086%=      5-min Rain = 0
KFR1 091004Z 28003KT M06/M08 A3032 RMK A01 T10551076  RH  085%=      5-min Rain = 0
KFR1 091005Z 28002KT M05/M08 A3032 RMK A01 T10541076  RH  085%=      5-min Rain = 0
KFR1 091006Z 27002KT M05/M08 A3032 RMK A01 T10541076  RH  084%=      5-min Rain = 0
KFR1 091007Z 27001KT M05/M08 A3032 RMK A01 T10541077  RH  084%=      5-min Rain = 0
KFR1 091008Z 27001KT M05/M08 A3032 RMK A01 T10541077  RH  084%=      5-min Rain = 0
KFR1 091009Z 28001KT M05/M08 A3032 RMK A01 T10541077  RH  084%=      5-min Rain = 0
KFR1 091010Z 27001KT M05/M08 A3032 RMK A01 T10541077  RH  084%=      5-min Rain = 0
KFR1 091011Z 28002KT M05/M08 A3032 RMK A01 T10541077  RH  084%=      5-min Rain = 0
KFR1 091012Z 27003KT M05/M08 A3032 RMK A01 T10541077  RH  084%=      5-min Rain = 0
KFR1 091013Z 27002KT M05/M08 A3032 RMK A01 T10541078  RH  083%=      5-min Rain = 0
KFR1 091014Z 27003KT M05/M08 A3032 RMK A01 T10541078  RH  083%=      5-min Rain = 0
KFR1 091015Z 27003KT M05/M08 A3032 RMK A01 T10541079  RH  083%=      5-min Rain = 0
KFR1 091016Z 26003KT M06/M08 A3032 RMK A01 T10561081  RH  082%=      5-min Rain = 0
KFR1 091017Z 27003KT M06/M08 A3032 RMK A01 T10571084  RH  082%=      5-min Rain = 0
KFR1 091018Z 26003KT M06/M08 A3033 RMK A01 T10581084  RH  082%=      5-min Rain = 0
KFR1 091019Z 25003KT M06/M08 A3032 RMK A01 T10581083  RH  083%=      5-min Rain = 0
KFR1 091020Z 25002KT M06/M08 A3032 RMK A01 T10591082  RH  083%=      5-min Rain = 0
KFR1 091021Z 25002KT M06/M08 A3032 RMK A01 T10591082  RH  083%=      5-min Rain = 0
KFR1 091022Z 26001KT M06/M08 A3032 RMK A01 T10591084  RH  083%=      5-min Rain = 0
KFR1 091023Z 26002KT M06/M08 A3032 RMK A01 T10601084  RH  083%=      5-min Rain = 0
KFR1 091024Z 26001KT M06/M08 A3032 RMK A01 T10601083  RH  083%=      5-min Rain = 0
KFR1 091025Z 27001KT M06/M08 A3032 RMK A01 T10591082  RH  084%=      5-min Rain = 0
KFR1 091026Z 28001KT M06/M08 A3032 RMK A01 T10581082  RH  083%=      5-min Rain = 0
KFR1 091027Z 27001KT M06/M08 A3032 RMK A01 T10571082  RH  083%=      5-min Rain = 0
KFR1 091028Z 27002KT M06/M08 A3032 RMK A01 T10561081  RH  083%=      5-min Rain = 0
KFR1 091029Z 30001KT M06/M08 A3032 RMK A01 T10551081  RH  082%=      5-min Rain = 0
KFR1 091030Z 30001KT M06/M08 A3032 RMK A01 T10551082  RH  081%=      5-min Rain = 0
KFR1 091031Z 31001KT M05/M08 A3032 RMK A01 T10541082  RH  081%=      5-min Rain = 0
KFR1 091032Z 33001KT M05/M08 A3032 RMK A01 T10541082  RH  081%=      5-min Rain = 0
KFR1 091033Z 32001KT M05/M08 A3032 RMK A01 T10541082  RH  081%=      5-min Rain = 0
KFR1 091034Z 27001KT M05/M08 A3032 RMK A01 T10531081  RH  081%=      5-min Rain = 0
KFR1 091035Z 25001KT M05/M08 A3032 RMK A01 T10531081  RH  080%=      5-min Rain = 0
KFR1 091036Z 24001KT M05/M08 A3032 RMK A01 T10531083  RH  080%=      5-min Rain = 0
KFR1 091037Z 25001KT M05/M09 A3032 RMK A01 T10541085  RH  079%=      5-min Rain = 0
KFR1 091038Z 26001KT M06/M09 A3032 RMK A01 T10561086  RH  079%=      5-min Rain = 0
KFR1 091039Z 27001KT M06/M09 A3032 RMK A01 T10581087  RH  080%=      5-min Rain = 0
KFR1 091040Z 27001KT M06/M09 A3032 RMK A01 T10581086  RH  081%=      5-min Rain = 0
KFR1 091041Z 27001KT M06/M09 A3032 RMK A01 T10581085  RH  081%=      5-min Rain = 0
KFR1 091042Z 27001KT M06/M08 A3032 RMK A01 T10571084  RH  082%=      5-min Rain = 0
KFR1 091043Z 26001KT M06/M08 A3032 RMK A01 T10571084  RH  081%=      5-min Rain = 0
KFR1 091044Z 25001KT M06/M09 A3032 RMK A01 T10571085  RH  081%=      5-min Rain = 0
KFR1 091045Z 28001KT M06/M09 A3032 RMK A01 T10581085  RH  081%=      5-min Rain = 0
KFR1 091046Z 29001KT M06/M08 A3032 RMK A01 T10571084  RH  081%=      5-min Rain = 0
KFR1 091047Z 28001KT M06/M08 A3032 RMK A01 T10561083  RH  082%=      5-min Rain = 0
KFR1 091048Z 26001KT M06/M08 A3032 RMK A01 T10551082  RH  081%=      5-min Rain = 0
KFR1 091049Z 26001KT M06/M08 A3032 RMK A01 T10551083  RH  081%=      5-min Rain = 0
KFR1 091050Z 26001KT M05/M08 A3032 RMK A01 T10541083  RH  080%=      5-min Rain = 0
KFR1 091051Z 28000KT M05/M08 A3032 RMK A01 T10541084  RH  080%=      5-min Rain = 0
KFR1 091052Z 28000KT M06/M08 A3032 RMK A01 T10551084  RH  080%=      5-min Rain = 0
KFR1 091053Z 28001KT M06/M09 A3032 RMK A01 T10551085  RH  079%=      5-min Rain = 0
KFR1 091054Z 28001KT M06/M08 A3032 RMK A01 T10551084  RH  080%=      5-min Rain = 0
KFR1 091055Z 28001KT M06/M08 A3032 RMK A01 T10551084  RH  080%=      5-min Rain = 0
KFR1 091056Z 00000KT M06/M09 A3032 RMK A01 T10551085  RH  080%=      5-min Rain = 0
KFR1 091057Z 00000KT M06/M09 A3032 RMK A01 T10561085  RH  080%=      5-min Rain = 0
KFR1 091058Z 20000KT M06/M09 A3032 RMK A01 T10571086  RH  080%=      5-min Rain = 0
KFR1 091059Z 22001KT M06/M09 A3032 RMK A01 T10581087  RH  080%=      5-min Rain = 0
KFR1 091100Z 23001KT M06/M09 A3032 RMK A01 T10581086  RH  080%=      5-min Rain = 0
KFR1 091101Z 21000KT M06/M09 A3032 RMK A01 T10581086  RH  081%=      5-min Rain = 0
KFR1 091102Z 25000KT M06/M09 A3031 RMK A01 T10581085  RH  081%=      5-min Rain = 0
KFR1 091103Z 25001KT M06/M08 A3031 RMK A01 T10581084  RH  082%=      5-min Rain = 0
KFR1 091104Z 25001KT M06/M08 A3031 RMK A01 T10571084  RH  082%=      5-min Rain = 0
KFR1 091105Z 27001KT M06/M09 A3031 RMK A01 T10571085  RH  081%=      5-min Rain = 0
KFR1 091106Z 27001KT M06/M09 A3031 RMK A01 T10571085  RH  080%=      5-min Rain = 0
KFR1 091107Z 24001KT M06/M09 A3031 RMK A01 T10581086  RH  080%=      5-min Rain = 0
KFR1 091108Z 24001KT M06/M09 A3031 RMK A01 T10581086  RH  081%=      5-min Rain = 0
KFR1 091109Z 25001KT M06/M09 A3031 RMK A01 T10591086  RH  081%=      5-min Rain = 0
KFR1 091110Z 25001KT M06/M09 A3031 RMK A01 T10591086  RH  081%=      5-min Rain = 0
KFR1 091111Z 25001KT M06/M09 A3031 RMK A01 T10591085  RH  081%=      5-min Rain = 0
KFR1 091112Z 24001KT M06/M09 A3031 RMK A01 T10591086  RH  082%=      5-min Rain = 0
KFR1 091113Z 24001KT M06/M09 A3031 RMK A01 T10601086  RH  082%=      5-min Rain = 0
KFR1 091114Z 22001KT M06/M09 A3031 RMK A01 T10601086  RH  082%=      5-min Rain = 0
KFR1 091115Z 22001KT M06/M09 A3031 RMK A01 T10591086  RH  082%=      5-min Rain = 0
KFR1 091116Z 23001KT M06/M09 A3031 RMK A01 T10591085  RH  082%=      5-min Rain = 0
KFR1 091117Z 25001KT M06/M08 A3031 RMK A01 T10581084  RH  082%=      5-min Rain = 0
KFR1 091118Z 26001KT M06/M08 A3031 RMK A01 T10581084  RH  082%=      5-min Rain = 0
KFR1 091119Z 27000KT M06/M08 A3031 RMK A01 T10571084  RH  081%=      5-min Rain = 0
KFR1 091120Z 26001KT M06/M08 A3031 RMK A01 T10571084  RH  081%=      5-min Rain = 0
KFR1 091121Z 26001KT M06/M09 A3031 RMK A01 T10571085  RH  081%=      5-min Rain = 0
KFR1 091122Z 26000KT M06/M09 A3031 RMK A01 T10571085  RH  081%=      5-min Rain = 0
KFR1 091123Z 00000KT M06/M09 A3031 RMK A01 T10571085  RH  081%=      5-min Rain = 0
KFR1 091124Z 00000KT M06/M09 A3031 RMK A01 T10571085  RH  081%=      5-min Rain = 0
KFR1 091125Z 00000KT M06/M09 A3031 RMK A01 T10571085  RH  081%=      5-min Rain = 0
KFR1 091126Z 00000KT M06/M09 A3031 RMK A01 T10571085  RH  081%=      5-min Rain = 0
KFR1 091127Z 00000KT M06/M09 A3031 RMK A01 T10571085  RH  081%=      5-min Rain = 0
KFR1 091128Z 16000KT M06/M08 A3031 RMK A01 T10571084  RH  081%=      5-min Rain = 0
KFR1 091129Z 16000KT M06/M08 A3031 RMK A01 T10561084  RH  081%=      5-min Rain = 0
KFR1 091130Z 09000KT M06/M08 A3032 RMK A01 T10561084  RH  081%=      5-min Rain = 0
KFR1 091131Z 00000KT M06/M08 A3032 RMK A01 T10551084  RH  081%=      5-min Rain = 0
KFR1 091132Z 00000KT M06/M08 A3032 RMK A01 T10551083  RH  080%=      5-min Rain = 0
KFR1 091133Z 00000KT M06/M08 A3032 RMK A01 T10551084  RH  080%=      5-min Rain = 0
KFR1 091134Z 00000KT M06/M08 A3032 RMK A01 T10551084  RH  080%=      5-min Rain = 0
KFR1 091135Z 00000KT M06/M08 A3032 RMK A01 T10551084  RH  080%=      5-min Rain = 0
KFR1 091136Z 11000KT M06/M08 A3032 RMK A01 T10551084  RH  080%=      5-min Rain = 0
KFR1 091137Z 00000KT M06/M08 A3032 RMK A01 T10551084  RH  080%=      5-min Rain = 0
KFR1 091138Z 00000KT M06/M08 A3032 RMK A01 T10551084  RH  080%=      5-min Rain = 0
KFR1 091139Z 10000KT M06/M09 A3032 RMK A01 T10561085  RH  080%=      5-min Rain = 0
KFR1 091140Z 10000KT M06/M08 A3032 RMK A01 T10561084  RH  080%=      5-min Rain = 0
KFR1 091141Z 10000KT M06/M08 A3032 RMK A01 T10561084  RH  080%=      5-min Rain = 0
KFR1 091142Z 00000KT M06/M08 A3032 RMK A01 T10561084  RH  081%=      5-min Rain = 0
KFR1 091143Z 00000KT M06/M08 A3032 RMK A01 T10561084  RH  081%=      5-min Rain = 0
KFR1 091144Z 00000KT M06/M08 A3032 RMK A01 T10561084  RH  081%=      5-min Rain = 0
KFR1 091145Z 18001KT M06/M08 A3032 RMK A01 T10561084  RH  081%=      5-min Rain = 0
KFR1 091146Z 21000KT M06/M08 A3032 RMK A01 T10561084  RH  080%=      5-min Rain = 0
KFR1 091147Z 20001KT M06/M09 A3032 RMK A01 T10561085  RH  080%=      5-min Rain = 0
KFR1 091148Z 19000KT M06/M09 A3032 RMK A01 T10561085  RH  080%=      5-min Rain = 0
KFR1 091149Z 00000KT M06/M09 A3032 RMK A01 T10571085  RH  081%=      5-min Rain = 0
KFR1 091150Z 00000KT M06/M08 A3032 RMK A01 T10571084  RH  081%=      5-min Rain = 0
KFR1 091151Z 00000KT M06/M08 A3032 RMK A01 T10571084  RH  081%=      5-min Rain = 0
KFR1 091152Z 00000KT M06/M08 A3032 RMK A01 T10561084  RH  081%=      5-min Rain = 0
KFR1 091153Z 29000KT M06/M08 A3032 RMK A01 T10571084  RH  081%=      5-min Rain = 0
KFR1 091154Z 28001KT M06/M09 A3032 RMK A01 T10571085  RH  081%=      5-min Rain = 0
KFR1 091155Z 27001KT M06/M09 A3032 RMK A01 T10571085  RH  080%=      5-min Rain = 0
KFR1 091156Z 27001KT M06/M09 A3032 RMK A01 T10571085  RH  080%=      5-min Rain = 0
KFR1 091157Z 27002KT M06/M09 A3032 RMK A01 T10571085  RH  081%=      5-min Rain = 0
KFR1 091158Z 24002KT M06/M09 A3032 RMK A01 T10581086  RH  081%=      5-min Rain = 0
KFR1 091159Z 23002KT M06/M09 A3032 RMK A01 T10591086  RH  081%=      5-min Rain = 0
KFR1 091200Z 23002KT M06/M09 A3032 RMK A01 T10591086  RH  081%=      5-min Rain = 0
KFR1 091201Z 23002KT M06/M09 A3032 RMK A01 T10591086  RH  081%=      5-min Rain = 0
KFR1 091202Z 22002KT M06/M09 A3033 RMK A01 T10591086  RH  082%=      5-min Rain = 0
KFR1 091203Z 23002KT M06/M09 A3033 RMK A01 T10601086  RH  082%=      5-min Rain = 0
KFR1 091204Z 25002KT M06/M09 A3033 RMK A01 T10591086  RH  082%=      5-min Rain = 0
KFR1 091205Z 26002KT M06/M09 A3033 RMK A01 T10601086  RH  081%=      5-min Rain = 0
KFR1 091206Z 26002KT M06/M09 A3033 RMK A01 T10601087  RH  082%=      5-min Rain = 0
KFR1 091207Z 27001KT M06/M09 A3033 RMK A01 T10601086  RH  082%=      5-min Rain = 0
KFR1 091208Z 26001KT M06/M09 A3033 RMK A01 T10591085  RH  082%=      5-min Rain = 0
KFR1 091209Z 25001KT M06/M08 A3033 RMK A01 T10591084  RH  082%=      5-min Rain = 0
KFR1 091210Z 25002KT M06/M08 A3033 RMK A01 T10581084  RH  082%=      5-min Rain = 0
KFR1 091211Z 25002KT M06/M08 A3033 RMK A01 T10581084  RH  082%=      5-min Rain = 0
KFR1 091212Z 25003KT M06/M08 A3033 RMK A01 T10571084  RH  082%=      5-min Rain = 0
KFR1 091213Z 25003KT M06/M08 A3033 RMK A01 T10571084  RH  081%=      5-min Rain = 0
KFR1 091214Z 25003KT M06/M08 A3033 RMK A01 T10571084  RH  081%=      5-min Rain = 0
KFR1 091215Z 25002KT M06/M09 A3033 RMK A01 T10571085  RH  081%=      5-min Rain = 0
KFR1 091216Z 25002KT M06/M09 A3033 RMK A01 T10581085  RH  081%=      5-min Rain = 0
KFR1 091217Z 25002KT M06/M09 A3033 RMK A01 T10581085  RH  081%=      5-min Rain = 0
KFR1 091218Z 24002KT M06/M09 A3033 RMK A01 T10581085  RH  081%=      5-min Rain = 0
KFR1 091219Z 24002KT M06/M09 A3033 RMK A01 T10581085  RH  081%=      5-min Rain = 0
KFR1 091220Z 23002KT M06/M09 A3033 RMK A01 T10591086  RH  081%=      5-min Rain = 0
KFR1 091221Z 23003KT M06/M09 A3033 RMK A01 T10601086  RH  081%=      5-min Rain = 0
KFR1 091222Z 22003KT M06/M09 A3033 RMK A01 T10601087  RH  082%=      5-min Rain = 0
KFR1 091223Z 22002KT M06/M09 A3033 RMK A01 T10601087  RH  081%=      5-min Rain = 0
KFR1 091224Z 22002KT M06/M09 A3033 RMK A01 T10611087  RH  082%=      5-min Rain = 0
KFR1 091225Z 22001KT M06/M09 A3033 RMK A01 T10611086  RH  082%=      5-min Rain = 0
KFR1 091226Z 23001KT M06/M09 A3033 RMK A01 T10601085  RH  083%=      5-min Rain = 0
KFR1 091227Z 26001KT M06/M08 A3033 RMK A01 T10591084  RH  082%=      5-min Rain = 0
KFR1 091228Z 27001KT M06/M08 A3034 RMK A01 T10591084  RH  082%=      5-min Rain = 0
KFR1 091229Z 27001KT M06/M08 A3034 RMK A01 T10581084  RH  082%=      5-min Rain = 0
KFR1 091230Z 26002KT M06/M08 A3034 RMK A01 T10581084  RH  082%=      5-min Rain = 0
KFR1 091231Z 25003KT M06/M08 A3034 RMK A01 T10571084  RH  082%=      5-min Rain = 0
KFR1 091232Z 25003KT M06/M09 A3034 RMK A01 T10581085  RH  081%=      5-min Rain = 0
KFR1 091233Z 26003KT M06/M09 A3034 RMK A01 T10581086  RH  081%=      5-min Rain = 0
KFR1 091234Z 26003KT M06/M09 A3034 RMK A01 T10591086  RH  081%=      5-min Rain = 0
KFR1 091235Z 26003KT M06/M09 A3034 RMK A01 T10591086  RH  082%=      5-min Rain = 0
KFR1 091236Z 26002KT M06/M09 A3034 RMK A01 T10591086  RH  082%=      5-min Rain = 0
KFR1 091237Z 25002KT M06/M09 A3034 RMK A01 T10591085  RH  082%=      5-min Rain = 0
KFR1 091238Z 25003KT M06/M09 A3034 RMK A01 T10591086  RH  081%=      5-min Rain = 0
KFR1 091239Z 25002KT M06/M09 A3034 RMK A01 T10601087  RH  081%=      5-min Rain = 0
KFR1 091240Z 23002KT M06/M09 A3034 RMK A01 T10601087  RH  082%=      5-min Rain = 0
KFR1 091241Z 23002KT M06/M09 A3034 RMK A01 T10611087  RH  082%=      5-min Rain = 0
KFR1 091242Z 24002KT M06/M09 A3034 RMK A01 T10621088  RH  082%=      5-min Rain = 0
KFR1 091243Z 25002KT M06/M09 A3034 RMK A01 T10621087  RH  083%=      5-min Rain = 0
KFR1 091244Z 25002KT M06/M09 A3034 RMK A01 T10631087  RH  083%=      5-min Rain = 0
KFR1 091245Z 26002KT M06/M09 A3034 RMK A01 T10631087  RH  083%=      5-min Rain = 0
KFR1 091246Z 27001KT M06/M09 A3034 RMK A01 T10631087  RH  084%=      5-min Rain = 0
KFR1 091247Z 27002KT M06/M09 A3034 RMK A01 T10621085  RH  084%=      5-min Rain = 0
KFR1 091248Z 26002KT M06/M08 A3034 RMK A01 T10611084  RH  084%=      5-min Rain = 0
KFR1 091249Z 26003KT M06/M08 A3034 RMK A01 T10601083  RH  084%=      5-min Rain = 0
KFR1 091250Z 25003KT M06/M08 A3034 RMK A01 T10581083  RH  083%=      5-min Rain = 0
KFR1 091251Z 25003KT M06/M08 A3034 RMK A01 T10581084  RH  082%=      5-min Rain = 0
KFR1 091252Z 24002KT M06/M08 A3034 RMK A01 T10581084  RH  081%=      5-min Rain = 0
KFR1 091253Z 24002KT M06/M09 A3034 RMK A01 T10581085  RH  081%=      5-min Rain = 0
KFR1 091254Z 24002KT M06/M09 A3034 RMK A01 T10581085  RH  081%=      5-min Rain = 0
KFR1 091255Z 24002KT M06/M09 A3034 RMK A01 T10581085  RH  081%=      5-min Rain = 0
KFR1 091256Z 24002KT M06/M09 A3034 RMK A01 T10581086  RH  081%=      5-min Rain = 0
KFR1 091257Z 25002KT M06/M09 A3034 RMK A01 T10581086  RH  081%=      5-min Rain = 0
KFR1 091258Z 25002KT M06/M09 A3034 RMK A01 T10581085  RH  081%=      5-min Rain = 0
KFR1 091259Z 24003KT M06/M09 A3034 RMK A01 T10591087  RH  081%=      5-min Rain = 0
KFR1 091300Z 25003KT M06/M09 A3034 RMK A01 T10601087  RH  081%=      5-min Rain = 0
KFR1 091301Z 25003KT M06/M09 A3034 RMK A01 T10611087  RH  082%=      5-min Rain = 0
KFR1 091302Z 25003KT M06/M09 A3034 RMK A01 T10611087  RH  082%=      5-min Rain = 0
KFR1 091303Z 25003KT M06/M09 A3034 RMK A01 T10621088  RH  082%=      5-min Rain = 0
KFR1 091304Z 26003KT M06/M09 A3034 RMK A01 T10631088  RH  082%=      5-min Rain = 0
KFR1 091305Z 26003KT M06/M09 A3034 RMK A01 T10631087  RH  083%=      5-min Rain = 0
KFR1 091306Z 26003KT M06/M09 A3034 RMK A01 T10631087  RH  083%=      5-min Rain = 0
KFR1 091307Z 26003KT M06/M09 A3034 RMK A01 T10621086  RH  083%=      5-min Rain = 0
KFR1 091308Z 26003KT M06/M09 A3034 RMK A01 T10621086  RH  083%=      5-min Rain = 0
KFR1 091309Z 26003KT M06/M09 A3034 RMK A01 T10611086  RH  083%=      5-min Rain = 0
KFR1 091310Z 27003KT M06/M09 A3035 RMK A01 T10611085  RH  083%=      5-min Rain = 0
KFR1 091311Z 26003KT M06/M08 A3035 RMK A01 T10591083  RH  083%=      5-min Rain = 0
KFR1 091312Z 25003KT M06/M08 A3035 RMK A01 T10581082  RH  083%=      5-min Rain = 0
KFR1 091313Z 24002KT M06/M08 A3035 RMK A01 T10571083  RH  082%=      5-min Rain = 0
KFR1 091314Z 25002KT M06/M08 A3035 RMK A01 T10571084  RH  081%=      5-min Rain = 0
KFR1 091315Z 24003KT M06/M08 A3034 RMK A01 T10571084  RH  082%=      5-min Rain = 0
KFR1 091316Z 24003KT M06/M08 A3034 RMK A01 T10581084  RH  082%=      5-min Rain = 0
KFR1 091317Z 24003KT M06/M09 A3035 RMK A01 T10581086  RH  081%=      5-min Rain = 0
KFR1 091318Z 24003KT M06/M09 A3035 RMK A01 T10591087  RH  081%=      5-min Rain = 0
KFR1 091319Z 24003KT M06/M09 A3035 RMK A01 T10591086  RH  081%=      5-min Rain = 0
KFR1 091320Z 24003KT M06/M09 A3035 RMK A01 T10591087  RH  081%=      5-min Rain = 0
KFR1 091321Z 25003KT M06/M09 A3035 RMK A01 T10611089  RH  080%=      5-min Rain = 0
KFR1 091322Z 25003KT M06/M09 A3035 RMK A01 T10621089  RH  081%=      5-min Rain = 0
KFR1 091323Z 25003KT M06/M09 A3035 RMK A01 T10621087  RH  082%=      5-min Rain = 0
KFR1 091324Z 24003KT M06/M09 A3035 RMK A01 T10621086  RH  083%=      5-min Rain = 0
KFR1 091325Z 23003KT M06/M09 A3035 RMK A01 T10621086  RH  083%=      5-min Rain = 0
KFR1 091326Z 24002KT M06/M09 A3035 RMK A01 T10611086  RH  083%=      5-min Rain = 0
KFR1 091327Z 24002KT M06/M09 A3035 RMK A01 T10611086  RH  083%=      5-min Rain = 0
KFR1 091328Z 23002KT M06/M09 A3035 RMK A01 T10611086  RH  083%=      5-min Rain = 0
KFR1 091329Z 24002KT M06/M09 A3035 RMK A01 T10611086  RH  083%=      5-min Rain = 0
KFR1 091330Z 25003KT M06/M09 A3035 RMK A01 T10621087  RH  082%=      5-min Rain = 0
KFR1 091331Z 24003KT M06/M09 A3035 RMK A01 T10631088  RH  082%=      5-min Rain = 0
KFR1 091332Z 25003KT M07/M09 A3035 RMK A01 T10651090  RH  082%=      5-min Rain = 0
KFR1 091333Z 25003KT M07/M09 A3035 RMK A01 T10651090  RH  083%=      5-min Rain = 0
KFR1 091334Z 25003KT M07/M09 A3035 RMK A01 T10651088  RH  083%=      5-min Rain = 0
KFR1 091335Z 26003KT M07/M09 A3035 RMK A01 T10661090  RH  083%=      5-min Rain = 0
KFR1 091336Z 26004KT M07/M09 A3035 RMK A01 T10671090  RH  083%=      5-min Rain = 0
KFR1 091337Z 25004KT M07/M09 A3035 RMK A01 T10671090  RH  084%=      5-min Rain = 0
KFR1 091338Z 24003KT M07/M09 A3035 RMK A01 T10661088  RH  085%=      5-min Rain = 0
KFR1 091339Z 24003KT M07/M09 A3035 RMK A01 T10651087  RH  085%=      5-min Rain = 0
KFR1 091340Z 23003KT M06/M09 A3035 RMK A01 T10641086  RH  084%=      5-min Rain = 0
KFR1 091341Z 23003KT M06/M09 A3035 RMK A01 T10621085  RH  084%=      5-min Rain = 0
KFR1 091342Z 24003KT M06/M09 A3035 RMK A01 T10631088  RH  082%=      5-min Rain = 0
KFR1 091343Z 24003KT M07/M09 A3035 RMK A01 T10651093  RH  081%=      5-min Rain = 0
KFR1 091344Z 23003KT M07/M09 A3035 RMK A01 T10671094  RH  081%=      5-min Rain = 0
KFR1 091345Z 23004KT M07/M09 A3035 RMK A01 T10681092  RH  083%=      5-min Rain = 0
KFR1 091346Z 22003KT M07/M09 A3035 RMK A01 T10691092  RH  083%=      5-min Rain = 0
KFR1 091347Z 23003KT M07/M09 A3035 RMK A01 T10691092  RH  084%=      5-min Rain = 0
KFR1 091348Z 23004KT M07/M09 A3035 RMK A01 T10691091  RH  085%=      5-min Rain = 0
KFR1 091349Z 23004KT M07/M09 A3035 RMK A01 T10691091  RH  084%=      5-min Rain = 0
KFR1 091350Z 24004KT M07/M09 A3035 RMK A01 T10701091  RH  084%=      5-min Rain = 0
KFR1 091351Z 24004KT M07/M09 A3035 RMK A01 T10691090  RH  085%=      5-min Rain = 0
KFR1 091352Z 24004KT M07/M09 A3035 RMK A01 T10681090  RH  084%=      5-min Rain = 0
KFR1 091353Z 24004KT M07/M09 A3035 RMK A01 T10671089  RH  085%=      5-min Rain = 0
KFR1 091354Z 23004KT M07/M09 A3036 RMK A01 T10661088  RH  084%=      5-min Rain = 0
KFR1 091355Z 22004KT M07/M09 A3036 RMK A01 T10651088  RH  084%=      5-min Rain = 0
KFR1 091356Z 23004KT M06/M09 A3036 RMK A01 T10641087  RH  084%=      5-min Rain = 0
KFR1 091357Z 22004KT M06/M09 A3036 RMK A01 T10641087  RH  084%=      5-min Rain = 0
KFR1 091358Z 22004KT M06/M09 A3036 RMK A01 T10641088  RH  083%=      5-min Rain = 0
KFR1 091359Z 22004KT M07/M09 A3036 RMK A01 T10651089  RH  083%=      5-min Rain = 0
KFR1 091400Z 22004KT M07/M09 A3035 RMK A01 T10651089  RH  083%=      5-min Rain = 0
KFR1 091401Z 22004KT M07/M09 A3035 RMK A01 T10651088  RH  083%=      5-min Rain = 0
KFR1 091402Z 22004KT M07/M09 A3035 RMK A01 T10651088  RH  084%=      5-min Rain = 0
KFR1 091403Z 22005KT M07/M09 A3035 RMK A01 T10651088  RH  084%=      5-min Rain = 0
KFR1 091404Z 22005KT M06/M09 A3035 RMK A01 T10641088  RH  084%=      5-min Rain = 0
KFR1 091405Z 22005KT M06/M09 A3035 RMK A01 T10631087  RH  084%=      5-min Rain = 0
KFR1 091406Z 22004KT M06/M09 A3035 RMK A01 T10631087  RH  083%=      5-min Rain = 0
KFR1 091407Z 22004KT M06/M09 A3036 RMK A01 T10621087  RH  083%=      5-min Rain = 0
KFR1 091408Z 22004KT M06/M09 A3036 RMK A01 T10621087  RH  083%=      5-min Rain = 0
KFR1 091409Z 22004KT M06/M09 A3036 RMK A01 T10611086  RH  083%=      5-min Rain = 0
KFR1 091410Z 22003KT M06/M09 A3036 RMK A01 T10611087  RH  082%=      5-min Rain = 0
KFR1 091411Z 22003KT M06/M09 A3036 RMK A01 T10611087  RH  082%=      5-min Rain = 0
KFR1 091412Z 23004KT M06/M09 A3036 RMK A01 T10611087  RH  082%=      5-min Rain = 0
KFR1 091413Z 24004KT M06/M09 A3036 RMK A01 T10611087  RH  082%=      5-min Rain = 0
KFR1 091414Z 23004KT M06/M09 A3036 RMK A01 T10601086  RH  082%=      5-min Rain = 0
KFR1 091415Z 23004KT M06/M09 A3036 RMK A01 T10591085  RH  082%=      5-min Rain = 0
KFR1 091416Z 23004KT M06/M08 A3036 RMK A01 T10581084  RH  082%=      5-min Rain = 0
KFR1 091417Z 22004KT M06/M08 A3036 RMK A01 T10571084  RH  081%=      5-min Rain = 0
KFR1 091418Z 22005KT M06/M08 A3036 RMK A01 T10561083  RH  081%=      5-min Rain = 0
KFR1 091419Z 22005KT M06/M08 A3036 RMK A01 T10561084  RH  081%=      5-min Rain = 0
KFR1 091420Z 22005KT M05/M08 A3036 RMK A01 T10541083  RH  080%=      5-min Rain = 0
KFR1 091421Z 22005KT M05/M08 A3036 RMK A01 T10531083  RH  080%=      5-min Rain = 0
KFR1 091422Z 21005KT M05/M08 A3036 RMK A01 T10531083  RH  079%=      5-min Rain = 0
KFR1 091423Z 21005KT M06/M08 A3036 RMK A01 T10551084  RH  080%=      5-min Rain = 0
KFR1 091424Z 21004KT M06/M08 A3035 RMK A01 T10551084  RH  080%=      5-min Rain = 0
KFR1 091425Z 21005KT M06/M08 A3035 RMK A01 T10551083  RH  081%=      5-min Rain = 0
KFR1 091426Z 21005KT M06/M08 A3035 RMK A01 T10551083  RH  081%=      5-min Rain = 0
KFR1 091427Z 22005KT M06/M08 A3035 RMK A01 T10551083  RH  081%=      5-min Rain = 0
KFR1 091428Z 22005KT M05/M08 A3035 RMK A01 T10541081  RH  081%=      5-min Rain = 0
KFR1 091429Z 23005KT M05/M08 A3035 RMK A01 T10521079  RH  081%=      5-min Rain = 0
KFR1 091430Z 23005KT M05/M08 A3035 RMK A01 T10501079  RH  080%=      5-min Rain = 0
KFR1 091431Z 24005KT M05/M08 A3036 RMK A01 T10491078  RH  080%=      5-min Rain = 0
KFR1 091432Z 24005KT M05/M08 A3036 RMK A01 T10491079  RH  079%=      5-min Rain = 0
KFR1 091433Z 23005KT M05/M08 A3036 RMK A01 T10481080  RH  079%=      5-min Rain = 0
KFR1 091434Z 23004KT M05/M08 A3036 RMK A01 T10491080  RH  078%=      5-min Rain = 0
KFR1 091435Z 23004KT M05/M08 A3035 RMK A01 T10491080  RH  079%=      5-min Rain = 0
KFR1 091436Z 22004KT M05/M08 A3035 RMK A01 T10491080  RH  079%=      5-min Rain = 0
KFR1 091437Z 22004KT M05/M08 A3035 RMK A01 T10491078  RH  080%=      5-min Rain = 0
KFR1 091438Z 21004KT M05/M08 A3035 RMK A01 T10481077  RH  080%=      5-min Rain = 0
KFR1 091439Z 21004KT M05/M08 A3035 RMK A01 T10471076  RH  080%=      5-min Rain = 0
KFR1 091440Z 21004KT M05/M08 A3035 RMK A01 T10461076  RH  079%=      5-min Rain = 0
KFR1 091441Z 21005KT M05/M08 A3035 RMK A01 T10451075  RH  080%=      5-min Rain = 0
KFR1 091442Z 21005KT M04/M07 A3036 RMK A01 T10441074  RH  080%=      5-min Rain = 0
KFR1 091443Z 22004KT M04/M07 A3036 RMK A01 T10441074  RH  079%=      5-min Rain = 0
KFR1 091444Z 21004KT M04/M07 A3035 RMK A01 T10431074  RH  079%=      5-min Rain = 0
KFR1 091445Z 21004KT M04/M07 A3035 RMK A01 T10431073  RH  079%=      5-min Rain = 0
KFR1 091446Z 21004KT M04/M07 A3035 RMK A01 T10421073  RH  079%=      5-min Rain = 0
KFR1 091447Z 22004KT M04/M07 A3036 RMK A01 T10421073  RH  079%=      5-min Rain = 0
KFR1 091448Z 22004KT M04/M07 A3036 RMK A01 T10411071  RH  080%=      5-min Rain = 0
KFR1 091449Z 22004KT M04/M07 A3036 RMK A01 T10401070  RH  080%=      5-min Rain = 0
KFR1 091450Z 23004KT M04/M07 A3036 RMK A01 T10401071  RH  079%=      5-min Rain = 0
KFR1 091451Z 23004KT M04/M07 A3036 RMK A01 T10391072  RH  078%=      5-min Rain = 0
KFR1 091452Z 24004KT M04/M07 A3036 RMK A01 T10391072  RH  078%=      5-min Rain = 0
KFR1 091453Z 23004KT M04/M07 A3036 RMK A01 T10381071  RH  078%=      5-min Rain = 0
KFR1 091454Z 23004KT M04/M07 A3036 RMK A01 T10381071  RH  078%=      5-min Rain = 0
KFR1 091455Z 23003KT M04/M07 A3036 RMK A01 T10381071  RH  078%=      5-min Rain = 0
KFR1 091456Z 23003KT M04/M07 A3036 RMK A01 T10371070  RH  078%=      5-min Rain = 0
KFR1 091457Z 23003KT M04/M07 A3036 RMK A01 T10351068  RH  078%=      5-min Rain = 0
KFR1 091458Z 22003KT M04/M07 A3036 RMK A01 T10351070  RH  077%=      5-min Rain = 0
KFR1 091459Z 23003KT M04/M07 A3036 RMK A01 T10351070  RH  077%=      5-min Rain = 0
KFR1 091500Z 22003KT M04/M07 A3036 RMK A01 T10351070  RH  076%=      5-min Rain = 0
KFR1 091501Z 23004KT M03/M07 A3036 RMK A01 T10341069  RH  077%=      5-min Rain = 0
KFR1 091502Z 23004KT M03/M07 A3036 RMK A01 T10331069  RH  076%=      5-min Rain = 0
KFR1 091503Z 23004KT M03/M07 A3036 RMK A01 T10331069  RH  076%=      5-min Rain = 0
KFR1 091504Z 23004KT M03/M07 A3036 RMK A01 T10311069  RH  075%=      5-min Rain = 0
KFR1 091505Z 23004KT M03/M07 A3036 RMK A01 T10321070  RH  075%=      5-min Rain = 0
KFR1 091506Z 24003KT M03/M07 A3036 RMK A01 T10311069  RH  075%=      5-min Rain = 0
KFR1 091507Z 23002KT M03/M07 A3036 RMK A01 T10311067  RH  076%=      5-min Rain = 0
KFR1 091508Z 22003KT M03/M06 A3036 RMK A01 T10291064  RH  077%=      5-min Rain = 0
KFR1 091509Z 23003KT M03/M07 A3036 RMK A01 T10291066  RH  076%=      5-min Rain = 0
KFR1 091510Z 22003KT M03/M07 A3037 RMK A01 T10291068  RH  074%=      5-min Rain = 0
KFR1 091511Z 22003KT M03/M07 A3037 RMK A01 T10291068  RH  074%=      5-min Rain = 0
KFR1 091512Z 22003KT M03/M07 A3037 RMK A01 T10291068  RH  075%=      5-min Rain = 0
KFR1 091513Z 21003KT M03/M07 A3037 RMK A01 T10291067  RH  075%=      5-min Rain = 0
KFR1 091514Z 22003KT M03/M07 A3037 RMK A01 T10291068  RH  074%=      5-min Rain = 0
KFR1 091515Z 22003KT M03/M07 A3037 RMK A01 T10281068  RH  074%=      5-min Rain = 0
KFR1 091516Z 21003KT M03/M07 A3037 RMK A01 T10281068  RH  074%=      5-min Rain = 0
KFR1 091517Z 23003KT M03/M07 A3037 RMK A01 T10271068  RH  074%=      5-min Rain = 0
KFR1 091518Z 22003KT M03/M07 A3037 RMK A01 T10271067  RH  074%=      5-min Rain = 0
KFR1 091519Z 22003KT M03/M07 A3037 RMK A01 T10271066  RH  074%=      5-min Rain = 0
KFR1 091520Z 23002KT M03/M07 A3037 RMK A01 T10261067  RH  073%=      5-min Rain = 0
KFR1 091521Z 22003KT M03/M07 A3037 RMK A01 T10261067  RH  073%=      5-min Rain = 0
KFR1 091522Z 22003KT M03/M07 A3037 RMK A01 T10251065  RH  074%=      5-min Rain = 0
KFR1 091523Z 23003KT M02/M07 A3037 RMK A01 T10241065  RH  074%=      5-min Rain = 0
KFR1 091524Z 22003KT M02/M06 A3037 RMK A01 T10241064  RH  074%=      5-min Rain = 0
KFR1 091525Z 23003KT M02/M06 A3037 RMK A01 T10231063  RH  074%=      5-min Rain = 0
KFR1 091526Z 24003KT M02/M06 A3037 RMK A01 T10221062  RH  074%=      5-min Rain = 0
KFR1 091527Z 23003KT M02/M06 A3037 RMK A01 T10211061  RH  074%=      5-min Rain = 0
KFR1 091528Z 23003KT M02/M06 A3037 RMK A01 T10201061  RH  073%=      5-min Rain = 0
KFR1 091529Z 22004KT M02/M06 A3037 RMK A01 T10201063  RH  072%=      5-min Rain = 0
KFR1 091530Z 22004KT M02/M06 A3037 RMK A01 T10201063  RH  072%=      5-min Rain = 0
KFR1 091531Z 22003KT M02/M06 A3037 RMK A01 T10201064  RH  072%=      5-min Rain = 0
KFR1 091532Z 22003KT M02/M06 A3037 RMK A01 T10191064  RH  072%=      5-min Rain = 0
KFR1 091533Z 22003KT M02/M06 A3037 RMK A01 T10191064  RH  071%=      5-min Rain = 0
KFR1 091534Z 22004KT M02/M07 A3038 RMK A01 T10201065  RH  071%=      5-min Rain = 0
KFR1 091535Z 22004KT M02/M06 A3038 RMK A01 T10191064  RH  071%=      5-min Rain = 0
KFR1 091536Z 23004KT M02/M06 A3038 RMK A01 T10181064  RH  071%=      5-min Rain = 0
KFR1 091537Z 24003KT M02/M06 A3038 RMK A01 T10181064  RH  071%=      5-min Rain = 0
KFR1 091538Z 23003KT M02/M06 A3038 RMK A01 T10171064  RH  071%=      5-min Rain = 0
KFR1 091539Z 25003KT M02/M06 A3038 RMK A01 T10161061  RH  071%=      5-min Rain = 0
KFR1 091540Z 26004KT M01/M06 A3038 RMK A01 T10141059  RH  072%=      5-min Rain = 0
KFR1 091541Z 26003KT M01/M06 A3038 RMK A01 T10141059  RH  071%=      5-min Rain = 0
KFR1 091542Z 26004KT M01/M06 A3038 RMK A01 T10131061  RH  070%=      5-min Rain = 0
KFR1 091543Z 26004KT M01/M06 A3039 RMK A01 T10131060  RH  070%=      5-min Rain = 0
KFR1 091544Z 26004KT M01/M06 A3039 RMK A01 T10121060  RH  070%=      5-min Rain = 0
KFR1 091545Z 25004KT M01/M06 A3039 RMK A01 T10121062  RH  069%=      5-min Rain = 0
KFR1 091546Z 25004KT M01/M06 A3038 RMK A01 T10121061  RH  069%=      5-min Rain = 0
KFR1 091547Z 25004KT M01/M06 A3039 RMK A01 T10131062  RH  069%=      5-min Rain = 0
KFR1 091548Z 26003KT M01/M06 A3038 RMK A01 T10131060  RH  070%=      5-min Rain = 0
KFR1 091549Z 25004KT M01/M06 A3039 RMK A01 T10131059  RH  071%=      5-min Rain = 0
KFR1 091550Z 25003KT M01/M06 A3039 RMK A01 T10121058  RH  071%=      5-min Rain = 0
KFR1 091551Z 25004KT M01/M06 A3039 RMK A01 T10091056  RH  071%=      5-min Rain = 0
KFR1 091552Z 25004KT M01/M06 A3039 RMK A01 T10091060  RH  068%=      5-min Rain = 0
KFR1 091553Z 26004KT M01/M06 A3039 RMK A01 T10101061  RH  068%=      5-min Rain = 0
KFR1 091554Z 25004KT M01/M06 A3039 RMK A01 T10101061  RH  068%=      5-min Rain = 0
KFR1 091555Z 27002KT M01/M06 A3039 RMK A01 T10091059  RH  069%=      5-min Rain = 0
KFR1 091556Z 26003KT M01/M06 A3039 RMK A01 T10081058  RH  069%=      5-min Rain = 0
KFR1 091557Z 26003KT M01/M06 A3039 RMK A01 T10071060  RH  068%=      5-min Rain = 0
KFR1 091558Z 26003KT M01/M06 A3039 RMK A01 T10071058  RH  068%=      5-min Rain = 0
KFR1 091559Z 26003KT M01/M06 A3039 RMK A01 T10061059  RH  067%=      5-min Rain = 0
KFR1 091600Z 26003KT M01/M06 A3039 RMK A01 T10051058  RH  067%=      5-min Rain = 0
KFR1 091601Z 26003KT M00/M06 A3039 RMK A01 T10041058  RH  067%=      5-min Rain = 0
KFR1 091602Z 27003KT M00/M06 A3039 RMK A01 T10031058  RH  067%=      5-min Rain = 0
KFR1 091603Z 28002KT M00/M06 A3039 RMK A01 T10041058  RH  067%=      5-min Rain = 0
KFR1 091604Z 24003KT M00/M06 A3039 RMK A01 T10041057  RH  067%=      5-min Rain = 0
KFR1 091605Z 27003KT M00/M06 A3039 RMK A01 T10031058  RH  067%=      5-min Rain = 0
KFR1 091606Z 28003KT M00/M06 A3039 RMK A01 T10031056  RH  067%=      5-min Rain = 0
KFR1 091607Z 26002KT M00/M06 A3039 RMK A01 T10021056  RH  067%=      5-min Rain = 0
KFR1 091608Z 27002KT M00/M06 A3039 RMK A01 T10031057  RH  067%=      5-min Rain = 0
KFR1 091609Z 28003KT M00/M06 A3039 RMK A01 T10031057  RH  067%=      5-min Rain = 0
KFR1 091610Z 27002KT M00/M06 A3039 RMK A01 T10041057  RH  067%=      5-min Rain = 0
KFR1 091611Z 27002KT M00/M06 A3039 RMK A01 T10041055  RH  068%=      5-min Rain = 0
KFR1 091612Z 27002KT M00/M06 A3039 RMK A01 T10041056  RH  068%=      5-min Rain = 0
KFR1 091613Z 28002KT M00/M06 A3039 RMK A01 T10031055  RH  068%=      5-min Rain = 0
KFR1 091614Z 28002KT M00/M05 A3039 RMK A01 T10011053  RH  068%=      5-min Rain = 0
KFR1 091615Z 28001KT M00/M05 A3039 RMK A01 T10011054  RH  068%=      5-min Rain = 0
KFR1 091616Z 27002KT M00/M05 A3039 RMK A01 T10011053  RH  068%=      5-min Rain = 0
KFR1 091617Z 29003KT 00/05 A3039 RMK A01 T00-00-52  RH  068%=      5-min Rain = 0
KFR1 091618Z 30002KT 00/M05 A3039 RMK A01 T00011051  RH  068%=      5-min Rain = 0
KFR1 091619Z 32002KT 00/M05 A3039 RMK A01 T00011052  RH  068%=      5-min Rain = 0
KFR1 091620Z 32002KT 00/M05 A3039 RMK A01 T00011051  RH  068%=      5-min Rain = 0
KFR1 091621Z 27001KT 00/M05 A3039 RMK A01 T00011051  RH  068%=      5-min Rain = 0
KFR1 091622Z 27002KT 00/M05 A3039 RMK A01 T00021051  RH  068%=      5-min Rain = 0
KFR1 091623Z 31002KT 00/M05 A3039 RMK A01 T00041049  RH  068%=      5-min Rain = 0
KFR1 091624Z 33001KT 01/M05 A3039 RMK A01 T00051048  RH  068%=      5-min Rain = 0
KFR1 091625Z 31001KT 01/M05 A3039 RMK A01 T00071048  RH  067%=      5-min Rain = 0
KFR1 091626Z 35001KT 01/M05 A3039 RMK A01 T00071049  RH  066%=      5-min Rain = 0
KFR1 091627Z 34000KT 01/M05 A3039 RMK A01 T00081049  RH  066%=      5-min Rain = 0
KFR1 091628Z 22000KT 01/M05 A3039 RMK A01 T00091048  RH  066%=      5-min Rain = 0
KFR1 091629Z 36001KT 01/M05 A3039 RMK A01 T00121045  RH  066%=      5-min Rain = 0
KFR1 091630Z 36001KT 01/M05 A3039 RMK A01 T00131046  RH  065%=      5-min Rain = 0
KFR1 091631Z 25001KT 01/M05 A3039 RMK A01 T00131047  RH  064%=      5-min Rain = 0
KFR1 091632Z 30003KT 01/M05 A3039 RMK A01 T00141047  RH  064%=      5-min Rain = 0
KFR1 091633Z 30002KT 02/M05 A3039 RMK A01 T00151047  RH  064%=      5-min Rain = 0
KFR1 091634Z 30001KT 02/M05 A3039 RMK A01 T00151048  RH  063%=      5-min Rain = 0
KFR1 091635Z 21000KT 01/M05 A3039 RMK A01 T00141048  RH  063%=      5-min Rain = 0
KFR1 091636Z 32002KT 02/M05 A3039 RMK A01 T00151047  RH  063%=      5-min Rain = 0
KFR1 091637Z 33002KT 02/M05 A3039 RMK A01 T00161046  RH  063%=      5-min Rain = 0
KFR1 091638Z 30001KT 02/M05 A3039 RMK A01 T00181045  RH  063%=      5-min Rain = 0
KFR1 091639Z 30001KT 02/M05 A3039 RMK A01 T00191045  RH  063%=      5-min Rain = 0
KFR1 091640Z 35003KT 02/M05 A3039 RMK A01 T00201045  RH  062%=      5-min Rain = 0
KFR1 091641Z 33002KT 02/M04 A3039 RMK A01 T00211044  RH  062%=      5-min Rain = 0
KFR1 091642Z 31003KT 02/M05 A3039 RMK A01 T00211045  RH  062%=      5-min Rain = 0
KFR1 091643Z 32001KT 02/M05 A3039 RMK A01 T00221046  RH  061%=      5-min Rain = 0
KFR1 091644Z 30002KT 02/M05 A3039 RMK A01 T00221045  RH  061%=      5-min Rain = 0
KFR1 091645Z 32001KT 02/M05 A3039 RMK A01 T00221045  RH  061%=      5-min Rain = 0
KFR1 091646Z 31001KT 02/M04 A3039 RMK A01 T00231044  RH  061%=      5-min Rain = 0
KFR1 091647Z 34001KT 03/M04 A3039 RMK A01 T00251044  RH  061%=      5-min Rain = 0
KFR1 091648Z 33001KT 03/M04 A3039 RMK A01 T00261043  RH  060%=      5-min Rain = 0
KFR1 091649Z 30002KT 03/M05 A3039 RMK A01 T00261045  RH  059%=      5-min Rain = 0
KFR1 091650Z 32003KT 03/M04 A3039 RMK A01 T00261044  RH  060%=      5-min Rain = 0
KFR1 091651Z 33003KT 03/M04 A3039 RMK A01 T00281041  RH  060%=      5-min Rain = 0
KFR1 091652Z 33004KT 03/M04 A3039 RMK A01 T00291043  RH  059%=      5-min Rain = 0
KFR1 091653Z 33003KT 03/M05 A3039 RMK A01 T00271046  RH  059%=      5-min Rain = 0
KFR1 091654Z 34003KT 03/M04 A3039 RMK A01 T00261044  RH  060%=      5-min Rain = 0
KFR1 091655Z 33004KT 03/M04 A3039 RMK A01 T00261044  RH  060%=      5-min Rain = 0
KFR1 091656Z 34002KT 03/M04 A3039 RMK A01 T00271044  RH  060%=      5-min Rain = 0
KFR1 091657Z 01003KT 03/M04 A3039 RMK A01 T00281041  RH  060%=      5-min Rain = 0
KFR1 091658Z 01004KT 03/M04 A3039 RMK A01 T00301042  RH  059%=      5-min Rain = 0
KFR1 091659Z 33004KT 03/M04 A3039 RMK A01 T00301042  RH  059%=      5-min Rain = 0
KFR1 091700Z 35004KT 03/M04 A3039 RMK A01 T00311041  RH  059%=      5-min Rain = 0
KFR1 091701Z 34003KT 03/M04 A3039 RMK A01 T00321042  RH  058%=      5-min Rain = 0
KFR1 091702Z 32004KT 03/M04 A3039 RMK A01 T00321042  RH  058%=      5-min Rain = 0
KFR1 091703Z 32003KT 03/M04 A3039 RMK A01 T00321043  RH  058%=      5-min Rain = 0
KFR1 091704Z 32003KT 03/M04 A3039 RMK A01 T00321043  RH  058%=      5-min Rain = 0
KFR1 091705Z 00002KT 03/M04 A3039 RMK A01 T00321043  RH  058%=      5-min Rain = 0
KFR1 091706Z 02003KT 03/M04 A3039 RMK A01 T00321041  RH  058%=      5-min Rain = 0
KFR1 091707Z 03002KT 03/M04 A3039 RMK A01 T00341042  RH  058%=      5-min Rain = 0
KFR1 091708Z 02003KT 03/M04 A3039 RMK A01 T00341043  RH  057%=      5-min Rain = 0
KFR1 091709Z 04003KT 03/M04 A3038 RMK A01 T00331043  RH  057%=      5-min Rain = 0
KFR1 091710Z 04002KT 03/M04 A3038 RMK A01 T00341042  RH  058%=      5-min Rain = 0
KFR1 091711Z 03001KT 04/M04 A3038 RMK A01 T00351042  RH  057%=      5-min Rain = 0
KFR1 091712Z 02001KT 04/M04 A3038 RMK A01 T00371040  RH  057%=      5-min Rain = 0
KFR1 091713Z 00002KT 04/M04 A3038 RMK A01 T00391040  RH  056%=      5-min Rain = 0
KFR1 091714Z 05002KT 04/M04 A3038 RMK A01 T00411038  RH  056%=      5-min Rain = 0
KFR1 091715Z 06002KT 04/M04 A3038 RMK A01 T00431039  RH  055%=      5-min Rain = 0
KFR1 091716Z 05002KT 04/M04 A3038 RMK A01 T00431040  RH  055%=      5-min Rain = 0
KFR1 091717Z 05002KT 04/M04 A3038 RMK A01 T00411043  RH  054%=      5-min Rain = 0
KFR1 091718Z 05002KT 04/M04 A3038 RMK A01 T00411040  RH  055%=      5-min Rain = 0
KFR1 091719Z 02003KT 04/M04 A3038 RMK A01 T00421041  RH  055%=      5-min Rain = 0
KFR1 091720Z 03003KT 04/M04 A3038 RMK A01 T00421041  RH  055%=      5-min Rain = 0
KFR1 091721Z 03003KT 04/M04 A3038 RMK A01 T00421040  RH  055%=      5-min Rain = 0
KFR1 091722Z 05002KT 04/M04 A3038 RMK A01 T00431041  RH  055%=      5-min Rain = 0
KFR1 091723Z 03003KT 04/M04 A3038 RMK A01 T00431041  RH  054%=      5-min Rain = 0
KFR1 091724Z 02002KT 04/M04 A3038 RMK A01 T00421042  RH  054%=      5-min Rain = 0
KFR1 091725Z 03002KT 04/M04 A3038 RMK A01 T00421042  RH  054%=      5-min Rain = 0
KFR1 091726Z 03003KT 04/M04 A3038 RMK A01 T00431039  RH  055%=      5-min Rain = 0
KFR1 091727Z 01004KT 05/M04 A3038 RMK A01 T00461038  RH  054%=      5-min Rain = 0
KFR1 091728Z 03004KT 05/M04 A3038 RMK A01 T00461040  RH  054%=      5-min Rain = 0
KFR1 091729Z 03003KT 04/M04 A3038 RMK A01 T00441042  RH  054%=      5-min Rain = 0
KFR1 091730Z 03003KT 04/M04 A3038 RMK A01 T00441041  RH  054%=      5-min Rain = 0
KFR1 091731Z 01002KT 05/M04 A3038 RMK A01 T00451040  RH  054%=      5-min Rain = 0
KFR1 091732Z 01002KT 05/M04 A3038 RMK A01 T00461039  RH  054%=      5-min Rain = 0
KFR1 091733Z 03003KT 05/M04 A3038 RMK A01 T00481038  RH  054%=      5-min Rain = 0
KFR1 091734Z 04002KT 05/M04 A3038 RMK A01 T00501037  RH  053%=      5-min Rain = 0
KFR1 091735Z 01002KT 05/M04 A3038 RMK A01 T00521038  RH  052%=      5-min Rain = 0
KFR1 091736Z 02003KT 05/M04 A3038 RMK A01 T00531037  RH  052%=      5-min Rain = 0
KFR1 091737Z 01004KT 05/M04 A3038 RMK A01 T00531039  RH  052%=      5-min Rain = 0
KFR1 091738Z 04004KT 05/M04 A3038 RMK A01 T00521040  RH  052%=      5-min Rain = 0
KFR1 091739Z 04003KT 05/M04 A3038 RMK A01 T00521040  RH  052%=      5-min Rain = 0
KFR1 091740Z 01004KT 05/M04 A3038 RMK A01 T00511040  RH  052%=      5-min Rain = 0
KFR1 091741Z 03004KT 05/M04 A3038 RMK A01 T00521039  RH  052%=      5-min Rain = 0
KFR1 091742Z 04004KT 05/M04 A3038 RMK A01 T00521040  RH  051%=      5-min Rain = 0
KFR1 091743Z 01004KT 05/M04 A3038 RMK A01 T00541038  RH  051%=      5-min Rain = 0
KFR1 091744Z 02003KT 05/M04 A3038 RMK A01 T00541041  RH  050%=      5-min Rain = 0
KFR1 091745Z 03003KT 05/M04 A3038 RMK A01 T00541040  RH  051%=      5-min Rain = 0
KFR1 091746Z 02003KT 05/M04 A3038 RMK A01 T00541040  RH  051%=      5-min Rain = 0
KFR1 091747Z 02004KT 06/M04 A3038 RMK A01 T00551040  RH  051%=      5-min Rain = 0
KFR1 091748Z 03003KT 06/M04 A3038 RMK A01 T00551040  RH  050%=      5-min Rain = 0
KFR1 091749Z 04003KT 06/M04 A3038 RMK A01 T00561040  RH  050%=      5-min Rain = 0
KFR1 091750Z 05002KT 06/M04 A3038 RMK A01 T00561041  RH  050%=      5-min Rain = 0
KFR1 091751Z 06003KT 06/M04 A3038 RMK A01 T00561040  RH  050%=      5-min Rain = 0
KFR1 091752Z 07003KT 06/M04 A3038 RMK A01 T00571039  RH  050%=      5-min Rain = 0
KFR1 091753Z 06003KT 06/M04 A3038 RMK A01 T00581040  RH  049%=      5-min Rain = 0
KFR1 091754Z 05003KT 06/M04 A3038 RMK A01 T00601038  RH  049%=      5-min Rain = 0
KFR1 091755Z 07003KT 06/M04 A3038 RMK A01 T00621038  RH  049%=      5-min Rain = 0
KFR1 091756Z 01002KT 06/M04 A3038 RMK A01 T00621039  RH  048%=      5-min Rain = 0
KFR1 091757Z 01002KT 06/M04 A3038 RMK A01 T00631040  RH  048%=      5-min Rain = 0
KFR1 091758Z 03004KT 06/M04 A3037 RMK A01 T00621040  RH  048%=      5-min Rain = 0
KFR1 091759Z 03003KT 06/M04 A3037 RMK A01 T00631039  RH  048%=      5-min Rain = 0
KFR1 091800Z 06004KT 06/M04 A3037 RMK A01 T00621040  RH  048%=      5-min Rain = 0
KFR1 091801Z 08003KT 06/M04 A3037 RMK A01 T00621041  RH  048%=      5-min Rain = 0
KFR1 091802Z 06003KT 06/M04 A3037 RMK A01 T00631040  RH  047%=      5-min Rain = 0
KFR1 091803Z 02002KT 06/M04 A3037 RMK A01 T00631041  RH  047%=      5-min Rain = 0
KFR1 091804Z 01002KT 06/M04 A3036 RMK A01 T00631039  RH  048%=      5-min Rain = 0
KFR1 091805Z 06002KT 06/M04 A3036 RMK A01 T00641039  RH  047%=      5-min Rain = 0
KFR1 091806Z 09002KT 07/M04 A3036 RMK A01 T00661041  RH  046%=      5-min Rain = 0
KFR1 091807Z 07004KT 07/M04 A3036 RMK A01 T00681041  RH  046%=      5-min Rain = 0
KFR1 091808Z 06006KT 07/M04 A3036 RMK A01 T00691040  RH  046%=      5-min Rain = 0
KFR1 091809Z 06005KT 07/M04 A3036 RMK A01 T00691042  RH  045%=      5-min Rain = 0
KFR1 091810Z 05006KT 07/M04 A3036 RMK A01 T00681043  RH  045%=      5-min Rain = 0
KFR1 091811Z 03005KT 07/M04 A3036 RMK A01 T00671042  RH  046%=      5-min Rain = 0
KFR1 091812Z 01003KT 07/M04 A3036 RMK A01 T00671042  RH  046%=      5-min Rain = 0
KFR1 091813Z 01003KT 07/M04 A3036 RMK A01 T00681041  RH  046%=      5-min Rain = 0
KFR1 091814Z 36002KT 07/M04 A3036 RMK A01 T00691041  RH  045%=      5-min Rain = 0
KFR1 091815Z 02004KT 07/M04 A3036 RMK A01 T00711041  RH  045%=      5-min Rain = 0
KFR1 091816Z 05004KT 07/M04 A3035 RMK A01 T00711041  RH  045%=      5-min Rain = 0
KFR1 091817Z 07004KT 07/M04 A3035 RMK A01 T00721042  RH  044%=      5-min Rain = 0
KFR1 091818Z 06005KT 07/M04 A3035 RMK A01 T00721043  RH  044%=      5-min Rain = 0
KFR1 091819Z 07005KT 07/M05 A3035 RMK A01 T00711046  RH  043%=      5-min Rain = 0
KFR1 091820Z 06004KT 07/M05 A3035 RMK A01 T00711046  RH  043%=      5-min Rain = 0
KFR1 091821Z 06003KT 07/M05 A3035 RMK A01 T00731046  RH  043%=      5-min Rain = 0
KFR1 091822Z 05005KT 07/M05 A3035 RMK A01 T00731046  RH  043%=      5-min Rain = 0
KFR1 091823Z 06006KT 07/M04 A3035 RMK A01 T00741044  RH  043%=      5-min Rain = 0
KFR1 091824Z 04005KT 08/M04 A3035 RMK A01 T00761044  RH  043%=      5-min Rain = 0
KFR1 091825Z 03003KT 08/M04 A3035 RMK A01 T00761044  RH  042%=      5-min Rain = 0
KFR1 091826Z 06004KT 08/M04 A3035 RMK A01 T00771042  RH  043%=      5-min Rain = 0
KFR1 091827Z 01006KT 08/M04 A3035 RMK A01 T00791041  RH  042%=      5-min Rain = 0
KFR1 091828Z 00006KT 08/M04 A3035 RMK A01 T00771042  RH  043%=      5-min Rain = 0
KFR1 091829Z 01005KT 08/M04 A3035 RMK A01 T00761043  RH  043%=      5-min Rain = 0
KFR1 091830Z 03005KT 08/M05 A3035 RMK A01 T00751045  RH  042%=      5-min Rain = 0
KFR1 091831Z 36002KT 07/M05 A3035 RMK A01 T00741046  RH  042%=      5-min Rain = 0
KFR1 091832Z 35003KT 08/M04 A3034 RMK A01 T00761044  RH  042%=      5-min Rain = 0
KFR1 091833Z 00004KT 08/M04 A3034 RMK A01 T00771044  RH  042%=      5-min Rain = 0
KFR1 091834Z 36004KT 08/M04 A3034 RMK A01 T00771044  RH  042%=      5-min Rain = 0
KFR1 091835Z 00004KT 08/M05 A3034 RMK A01 T00761047  RH  041%=      5-min Rain = 0
KFR1 091836Z 02004KT 07/M05 A3034 RMK A01 T00741047  RH  042%=      5-min Rain = 0
KFR1 091837Z 02002KT 07/M05 A3035 RMK A01 T00741047  RH  042%=      5-min Rain = 0
KFR1 091838Z 36003KT 07/M05 A3035 RMK A01 T00741047  RH  042%=      5-min Rain = 0
KFR1 091839Z 36006KT 08/M05 A3035 RMK A01 T00751046  RH  042%=      5-min Rain = 0
KFR1 091840Z 36006KT 08/M05 A3035 RMK A01 T00761047  RH  041%=      5-min Rain = 0
KFR1 091841Z 36004KT 08/M05 A3035 RMK A01 T00751048  RH  041%=      5-min Rain = 0
KFR1 091842Z 35002KT 08/M05 A3034 RMK A01 T00761049  RH  041%=      5-min Rain = 0
KFR1 091843Z 00003KT 08/M05 A3034 RMK A01 T00751049  RH  041%=      5-min Rain = 0
KFR1 091844Z 35005KT 08/M05 A3034 RMK A01 T00761050  RH  041%=      5-min Rain = 0
KFR1 091845Z 35004KT 08/M05 A3034 RMK A01 T00761052  RH  040%=      5-min Rain = 0
KFR1 091846Z 35004KT 08/M05 A3034 RMK A01 T00761050  RH  040%=      5-min Rain = 0
KFR1 091847Z 35004KT 08/M05 A3034 RMK A01 T00761049  RH  041%=      5-min Rain = 0
KFR1 091848Z 34004KT 08/M05 A3034 RMK A01 T00771049  RH  041%=      5-min Rain = 0
KFR1 091849Z 35003KT 08/M05 A3034 RMK A01 T00791049  RH  040%=      5-min Rain = 0
KFR1 091850Z 36004KT 08/M05 A3034 RMK A01 T00791049  RH  040%=      5-min Rain = 0
KFR1 091851Z 01003KT 08/M05 A3034 RMK A01 T00801048  RH  040%=      5-min Rain = 0
KFR1 091852Z 35004KT 08/M05 A3034 RMK A01 T00811048  RH  040%=      5-min Rain = 0
KFR1 091853Z 34004KT 08/M05 A3034 RMK A01 T00821048  RH  039%=      5-min Rain = 0
KFR1 091854Z 01005KT 08/M05 A3034 RMK A01 T00821048  RH  039%=      5-min Rain = 0
KFR1 091855Z 02003KT 08/M05 A3034 RMK A01 T00821050  RH  039%=      5-min Rain = 0
KFR1 091856Z 01003KT 08/M05 A3034 RMK A01 T00801052  RH  039%=      5-min Rain = 0
KFR1 091857Z 35003KT 08/M05 A3034 RMK A01 T00811051  RH  039%=      5-min Rain = 0
KFR1 091858Z 00005KT 08/M05 A3034 RMK A01 T00821053  RH  038%=      5-min Rain = 0
KFR1 091859Z 36003KT 08/M05 A3034 RMK A01 T00821051  RH  038%=      5-min Rain = 0
KFR1 091900Z 33001KT 08/M05 A3034 RMK A01 T00811052  RH  039%=      5-min Rain = 0
KFR1 091901Z 34001KT 08/M05 A3034 RMK A01 T00811051  RH  039%=      5-min Rain = 0
KFR1 091902Z 01003KT 08/M05 A3034 RMK A01 T00821052  RH  038%=      5-min Rain = 0
KFR1 091903Z 03002KT 08/M05 A3034 RMK A01 T00821051  RH  038%=      5-min Rain = 0
KFR1 091904Z 01001KT 08/M05 A3034 RMK A01 T00831050  RH  038%=      5-min Rain = 0
KFR1 091905Z 36002KT 09/M05 A3033 RMK A01 T00851049  RH  038%=      5-min Rain = 0
KFR1 091906Z 35003KT 09/M05 A3033 RMK A01 T00861051  RH  038%=      5-min Rain = 0
KFR1 091907Z 34002KT 09/M05 A3033 RMK A01 T00851053  RH  037%=      5-min Rain = 0
KFR1 091908Z 01003KT 08/M05 A3033 RMK A01 T00841054  RH  037%=      5-min Rain = 0
KFR1 091909Z 00003KT 09/M06 A3033 RMK A01 T00851055  RH  037%=      5-min Rain = 0
KFR1 091910Z 00003KT 09/M06 A3033 RMK A01 T00851055  RH  037%=      5-min Rain = 0
KFR1 091911Z 01003KT 09/M06 A3033 RMK A01 T00851057  RH  036%=      5-min Rain = 0
KFR1 091912Z 02003KT 09/M06 A3033 RMK A01 T00851056  RH  037%=      5-min Rain = 0
KFR1 091913Z 02003KT 09/M06 A3033 RMK A01 T00861056  RH  036%=      5-min Rain = 0
KFR1 091914Z 06000KT 09/M06 A3033 RMK A01 T00871059  RH  035%=      5-min Rain = 0
KFR1 091915Z 35003KT 09/M06 A3033 RMK A01 T00861059  RH  035%=      5-min Rain = 0
KFR1 091916Z 36004KT 09/M06 A3033 RMK A01 T00861059  RH  035%=      5-min Rain = 0
KFR1 091917Z 34003KT 09/M06 A3033 RMK A01 T00861060  RH  035%=      5-min Rain = 0
KFR1 091918Z 33002KT 09/M06 A3033 RMK A01 T00861061  RH  035%=      5-min Rain = 0
KFR1 091919Z 01003KT 09/M06 A3033 RMK A01 T00861059  RH  035%=      5-min Rain = 0
KFR1 091920Z 01004KT 09/M06 A3033 RMK A01 T00881057  RH  035%=      5-min Rain = 0
KFR1 091921Z 36003KT 09/M06 A3033 RMK A01 T00891058  RH  035%=      5-min Rain = 0
KFR1 091922Z 34004KT 09/M06 A3033 RMK A01 T00881059  RH  035%=      5-min Rain = 0
KFR1 091923Z 03004KT 09/M06 A3033 RMK A01 T00871061  RH  034%=      5-min Rain = 0
KFR1 091924Z 04003KT 09/M06 A3033 RMK A01 T00871063  RH  034%=      5-min Rain = 0
KFR1 091925Z 00002KT 09/M06 A3033 RMK A01 T00861062  RH  034%=      5-min Rain = 0
KFR1 091926Z 01003KT 09/M06 A3033 RMK A01 T00891059  RH  035%=      5-min Rain = 0
KFR1 091927Z 01004KT 09/M06 A3033 RMK A01 T00901059  RH  034%=      5-min Rain = 0
KFR1 091928Z 03004KT 09/M06 A3033 RMK A01 T00881059  RH  035%=      5-min Rain = 0
KFR1 091929Z 03003KT 09/M06 A3033 RMK A01 T00891063  RH  034%=      5-min Rain = 0
KFR1 091930Z 04002KT 09/M07 A3033 RMK A01 T00891069  RH  032%=      5-min Rain = 0
KFR1 091931Z 02002KT 09/M07 A3033 RMK A01 T00891069  RH  032%=      5-min Rain = 0
KFR1 091932Z 33002KT 09/M07 A3033 RMK A01 T00901066  RH  033%=      5-min Rain = 0
KFR1 091933Z 36004KT 09/M06 A3033 RMK A01 T00921063  RH  033%=      5-min Rain = 0
KFR1 091934Z 01004KT 09/M06 A3033 RMK A01 T00931063  RH  033%=      5-min Rain = 0
KFR1 091935Z 05005KT 09/M06 A3033 RMK A01 T00921064  RH  033%=      5-min Rain = 0
KFR1 091936Z 04004KT 09/M07 A3033 RMK A01 T00911066  RH  032%=      5-min Rain = 0
KFR1 091937Z 03002KT 09/M07 A3033 RMK A01 T00901068  RH  032%=      5-min Rain = 0
KFR1 091938Z 04002KT 09/M07 A3033 RMK A01 T00911067  RH  032%=      5-min Rain = 0
KFR1 091939Z 06003KT 09/M07 A3033 RMK A01 T00921066  RH  032%=      5-min Rain = 0
KFR1 091940Z 06003KT 09/M07 A3032 RMK A01 T00931066  RH  032%=      5-min Rain = 0
KFR1 091941Z 07005KT 10/M06 A3032 RMK A01 T00961064  RH  032%=      5-min Rain = 0
KFR1 091942Z 08006KT 10/M07 A3032 RMK A01 T00961068  RH  031%=      5-min Rain = 0
KFR1 091943Z 09005KT 09/M07 A3032 RMK A01 T00941067  RH  031%=      5-min Rain = 0
KFR1 091944Z 05005KT 10/M07 A3032 RMK A01 T00951067  RH  031%=      5-min Rain = 0
KFR1 091945Z 01004KT 09/M07 A3032 RMK A01 T00941067  RH  031%=      5-min Rain = 0
KFR1 091946Z 02004KT 10/M07 A3032 RMK A01 T00951067  RH  031%=      5-min Rain = 0
KFR1 091947Z 06003KT 10/M07 A3032 RMK A01 T00981069  RH  030%=      5-min Rain = 0
KFR1 091948Z 07003KT 10/M08 A3032 RMK A01 T00981075  RH  029%=      5-min Rain = 0
KFR1 091949Z 07002KT 10/M08 A3032 RMK A01 T00971077  RH  029%=      5-min Rain = 0
KFR1 091950Z 05003KT 10/M07 A3032 RMK A01 T00961074  RH  029%=      5-min Rain = 0
KFR1 091951Z 01003KT 10/M07 A3032 RMK A01 T00971070  RH  030%=      5-min Rain = 0
KFR1 091952Z 36004KT 10/M07 A3032 RMK A01 T00981070  RH  030%=      5-min Rain = 0
KFR1 091953Z 01006KT 10/M07 A3032 RMK A01 T00971070  RH  030%=      5-min Rain = 0
KFR1 091954Z 35005KT 10/M07 A3032 RMK A01 T00971069  RH  030%=      5-min Rain = 0
KFR1 091955Z 00003KT 10/M07 A3032 RMK A01 T00971069  RH  030%=      5-min Rain = 0
KFR1 091956Z 01004KT 10/M07 A3032 RMK A01 T00991068  RH  030%=      5-min Rain = 0
KFR1 091957Z 36002KT 10/M07 A3032 RMK A01 T00991072  RH  029%=      5-min Rain = 0
KFR1 091958Z 35003KT 10/M07 A3032 RMK A01 T00981073  RH  029%=      5-min Rain = 0
KFR1 091959Z 35003KT 10/M07 A3032 RMK A01 T00991072  RH  029%=      5-min Rain = 0
KFR1 092000Z 01006KT 10/M07 A3032 RMK A01 T00981072  RH  029%=      5-min Rain = 0
KFR1 092001Z 02005KT 10/M07 A3032 RMK A01 T00981074  RH  029%=      5-min Rain = 0
KFR1 092002Z 01004KT 10/M08 A3032 RMK A01 T00981075  RH  029%=      5-min Rain = 0
KFR1 092003Z 02005KT 10/M07 A3032 RMK A01 T00981074  RH  029%=      5-min Rain = 0
KFR1 092004Z 03002KT 10/M08 A3032 RMK A01 T00981077  RH  028%=      5-min Rain = 0
KFR1 092005Z 35003KT 10/M08 A3032 RMK A01 T00971078  RH  028%=      5-min Rain = 0
KFR1 092006Z 36004KT 10/M08 A3032 RMK A01 T00981075  RH  029%=      5-min Rain = 0
KFR1 092007Z 36004KT 10/M08 A3032 RMK A01 T00981076  RH  029%=      5-min Rain = 0
KFR1 092008Z 35003KT 10/M08 A3032 RMK A01 T00971075  RH  029%=      5-min Rain = 0
KFR1 092009Z 35003KT 10/M07 A3032 RMK A01 T00971073  RH  029%=      5-min Rain = 0
KFR1 092010Z 36004KT 10/M07 A3032 RMK A01 T01001071  RH  029%=      5-min Rain = 0
KFR1 092011Z 00005KT 10/M07 A3032 RMK A01 T01011072  RH  029%=      5-min Rain = 0
KFR1 092012Z 01004KT 10/M07 A3032 RMK A01 T01021071  RH  029%=      5-min Rain = 0
KFR1 092013Z 01004KT 10/M07 A3032 RMK A01 T01011073  RH  029%=      5-min Rain = 0
KFR1 092014Z 01005KT 10/M08 A3032 RMK A01 T00991075  RH  029%=      5-min Rain = 0
KFR1 092015Z 01004KT 10/M08 A3031 RMK A01 T00991075  RH  029%=      5-min Rain = 0
KFR1 092016Z 01004KT 10/M08 A3031 RMK A01 T00991076  RH  028%=      5-min Rain = 0
KFR1 092017Z 02003KT 10/M08 A3031 RMK A01 T00991077  RH  028%=      5-min Rain = 0
KFR1 092018Z 00003KT 10/M08 A3031 RMK A01 T00991075  RH  029%=      5-min Rain = 0
KFR1 092019Z 01004KT 10/M07 A3031 RMK A01 T01001074  RH  029%=      5-min Rain = 0
KFR1 092020Z 01006KT 10/M07 A3031 RMK A01 T01021074  RH  028%=      5-min Rain = 0
KFR1 092021Z 01005KT 10/M08 A3031 RMK A01 T01021078  RH  027%=      5-min Rain = 0
KFR1 092022Z 01003KT 10/M08 A3031 RMK A01 T01011081  RH  027%=      5-min Rain = 0
KFR1 092023Z 36004KT 10/M08 A3031 RMK A01 T01011079  RH  027%=      5-min Rain = 0
KFR1 092024Z 00005KT 10/M08 A3031 RMK A01 T01001078  RH  028%=      5-min Rain = 0
KFR1 092025Z 02005KT 10/M08 A3031 RMK A01 T01011078  RH  028%=      5-min Rain = 0
KFR1 092026Z 02003KT 10/M08 A3031 RMK A01 T01021079  RH  027%=      5-min Rain = 0
KFR1 092027Z 04003KT 10/M08 A3031 RMK A01 T01041080  RH  027%=      5-min Rain = 0
KFR1 092028Z 00003KT 10/M08 A3031 RMK A01 T01031080  RH  027%=      5-min Rain = 0
KFR1 092029Z 35005KT 10/M08 A3031 RMK A01 T01031079  RH  027%=      5-min Rain = 0
KFR1 092030Z 01005KT 10/M08 A3031 RMK A01 T01021077  RH  027%=      5-min Rain = 0
KFR1 092031Z 02004KT 10/M08 A3031 RMK A01 T01031075  RH  028%=      5-min Rain = 0
KFR1 092032Z 03005KT 11/M08 A3031 RMK A01 T01051076  RH  027%=      5-min Rain = 0
KFR1 092033Z 02004KT 11/M08 A3031 RMK A01 T01051076  RH  027%=      5-min Rain = 0
KFR1 092034Z 01004KT 11/M08 A3031 RMK A01 T01051077  RH  027%=      5-min Rain = 0
KFR1 092035Z 00004KT 10/M08 A3031 RMK A01 T01041078  RH  027%=      5-min Rain = 0
KFR1 092036Z 35004KT 11/M08 A3031 RMK A01 T01051077  RH  027%=      5-min Rain = 0
KFR1 092037Z 01004KT 11/M08 A3031 RMK A01 T01061076  RH  027%=      5-min Rain = 0
KFR1 092038Z 00006KT 11/M08 A3031 RMK A01 T01061076  RH  027%=      5-min Rain = 0
KFR1 092039Z 01005KT 11/M08 A3031 RMK A01 T01051076  RH  027%=      5-min Rain = 0
KFR1 092040Z 02004KT 11/M08 A3031 RMK A01 T01051076  RH  027%=      5-min Rain = 0
KFR1 092041Z 01004KT 11/M08 A3031 RMK A01 T01051077  RH  027%=      5-min Rain = 0
KFR1 092042Z 34005KT 10/M08 A3031 RMK A01 T01041077  RH  027%=      5-min Rain = 0
KFR1 092043Z 05005KT 10/M08 A3031 RMK A01 T01041078  RH  027%=      5-min Rain = 0
KFR1 092044Z 07006KT 11/M08 A3031 RMK A01 T01051077  RH  027%=      5-min Rain = 0
KFR1 092045Z 06006KT 11/M08 A3031 RMK A01 T01081075  RH  027%=      5-min Rain = 0
KFR1 092046Z 06006KT 11/M08 A3031 RMK A01 T01081077  RH  026%=      5-min Rain = 0
KFR1 092047Z 06006KT 11/M08 A3031 RMK A01 T01071079  RH  026%=      5-min Rain = 0
KFR1 092048Z 06007KT 11/M08 A3031 RMK A01 T01071078  RH  026%=      5-min Rain = 0
KFR1 092049Z 03007KT 11/M08 A3031 RMK A01 T01071078  RH  027%=      5-min Rain = 0
KFR1 092050Z 02005KT 11/M08 A3031 RMK A01 T01071078  RH  026%=      5-min Rain = 0
KFR1 092051Z 02005KT 11/M08 A3031 RMK A01 T01071079  RH  026%=      5-min Rain = 0
KFR1 092052Z 07005KT 11/M08 A3031 RMK A01 T01071077  RH  027%=      5-min Rain = 0
KFR1 092053Z 04007KT 11/M08 A3031 RMK A01 T01081078  RH  026%=      5-min Rain = 0
KFR1 092054Z 05007KT 11/M08 A3031 RMK A01 T01081079  RH  026%=      5-min Rain = 0
KFR1 092055Z 04007KT 11/M08 A3031 RMK A01 T01071080  RH  026%=      5-min Rain = 0
KFR1 092056Z 05007KT 11/M08 A3031 RMK A01 T01091077  RH  026%=      5-min Rain = 0
KFR1 092057Z 04007KT 11/M08 A3031 RMK A01 T01091078  RH  026%=      5-min Rain = 0
KFR1 092058Z 04004KT 11/M08 A3031 RMK A01 T01091079  RH  026%=      5-min Rain = 0
KFR1 092059Z 04005KT 11/M08 A3031 RMK A01 T01081080  RH  026%=      5-min Rain = 0
KFR1 092100Z 04004KT 11/M08 A3031 RMK A01 T01081080  RH  026%=      5-min Rain = 0
KFR1 092101Z 03004KT 11/M08 A3031 RMK A01 T01061080  RH  026%=      5-min Rain = 0
KFR1 092102Z 04005KT 11/M08 A3031 RMK A01 T01071076  RH  027%=      5-min Rain = 0
KFR1 092103Z 01004KT 11/M08 A3031 RMK A01 T01081075  RH  027%=      5-min Rain = 0
KFR1 092104Z 01005KT 11/M08 A3031 RMK A01 T01091077  RH  026%=      5-min Rain = 0
KFR1 092105Z 03006KT 11/M08 A3031 RMK A01 T01081078  RH  026%=      5-min Rain = 0
KFR1 092106Z 03005KT 11/M08 A3031 RMK A01 T01081077  RH  027%=      5-min Rain = 0
KFR1 092107Z 02007KT 11/M08 A3031 RMK A01 T01071077  RH  027%=      5-min Rain = 0
KFR1 092108Z 02007KT 11/M08 A3031 RMK A01 T01051080  RH  026%=      5-min Rain = 0
KFR1 092109Z 03006KT 10/M08 A3031 RMK A01 T01031080  RH  027%=      5-min Rain = 0
KFR1 092110Z 03004KT 10/M08 A3031 RMK A01 T01031079  RH  027%=      5-min Rain = 0
KFR1 092111Z 02003KT 10/M08 A3031 RMK A01 T01031079  RH  027%=      5-min Rain = 0
KFR1 092112Z 02005KT 10/M08 A3031 RMK A01 T01031079  RH  027%=      5-min Rain = 0
KFR1 092113Z 02007KT 10/M08 A3031 RMK A01 T01031079  RH  027%=      5-min Rain = 0
KFR1 092114Z 01006KT 10/M08 A3031 RMK A01 T01021080  RH  027%=      5-min Rain = 0
KFR1 092115Z 03007KT 10/M08 A3031 RMK A01 T01021079  RH  027%=      5-min Rain = 0
KFR1 092116Z 05006KT 10/M08 A3031 RMK A01 T01021080  RH  027%=      5-min Rain = 0
KFR1 092117Z 06004KT 10/M08 A3031 RMK A01 T01021080  RH  027%=      5-min Rain = 0
KFR1 092118Z 05005KT 10/M08 A3031 RMK A01 T01021079  RH  027%=      5-min Rain = 0
KFR1 092119Z 05005KT 10/M08 A3031 RMK A01 T01021080  RH  027%=      5-min Rain = 0
KFR1 092120Z 05006KT 10/M08 A3031 RMK A01 T01031079  RH  027%=      5-min Rain = 0
KFR1 092121Z 05005KT 10/M08 A3031 RMK A01 T01031081  RH  027%=      5-min Rain = 0
KFR1 092122Z 05006KT 10/M08 A3031 RMK A01 T01021082  RH  026%=      5-min Rain = 0
KFR1 092123Z 05006KT 10/M08 A3031 RMK A01 T01021081  RH  027%=      5-min Rain = 0
KFR1 092124Z 05006KT 10/M08 A3031 RMK A01 T01031081  RH  027%=      5-min Rain = 0
KFR1 092125Z 04005KT 10/M08 A3031 RMK A01 T01031080  RH  027%=      5-min Rain = 0
KFR1 092126Z 04004KT 10/M08 A3031 RMK A01 T01031079  RH  027%=      5-min Rain = 0
KFR1 092127Z 03004KT 10/M08 A3031 RMK A01 T01031081  RH  027%=      5-min Rain = 0
KFR1 092128Z 05004KT 10/M08 A3031 RMK A01 T01031081  RH  027%=      5-min Rain = 0
KFR1 092129Z 06006KT 10/M08 A3031 RMK A01 T01031080  RH  027%=      5-min Rain = 0
KFR1 092130Z 06006KT 10/M08 A303 RMK A01 T01021079  RH  027%=      5-min Rain = 0
KFR1 092131Z 02004KT 10/M08 A3031 RMK A01 T01021078  RH  027%=      5-min Rain = 0
KFR1 092132Z 01006KT 10/M08 A3031 RMK A01 T01021075  RH  028%=      5-min Rain = 0
KFR1 092133Z 03004KT 10/M08 A303 RMK A01 T01031075  RH  028%=      5-min Rain = 0
KFR1 092134Z 02004KT 10/M07 A303 RMK A01 T01031074  RH  028%=      5-min Rain = 0
KFR1 092135Z 03005KT 10/M07 A303 RMK A01 T01031074  RH  028%=      5-min Rain = 0
KFR1 092136Z 03006KT 10/M08 A303 RMK A01 T01021075  RH  028%=      5-min Rain = 0
KFR1 092137Z 04006KT 10/M07 A303 RMK A01 T01021074  RH  028%=      5-min Rain = 0
KFR1 092138Z 04007KT 10/M07 A303 RMK A01 T01021074  RH  028%=      5-min Rain = 0
KFR1 092139Z 04008KT 10/M08 A303 RMK A01 T01021077  RH  028%=      5-min Rain = 0
KFR1 092140Z 05006KT 10/M08 A303 RMK A01 T01021078  RH  027%=      5-min Rain = 0
KFR1 092141Z 05006KT 10/M08 A3031 RMK A01 T01021078  RH  027%=      5-min Rain = 0
KFR1 092142Z 05006KT 10/M08 A3031 RMK A01 T01021076  RH  028%=      5-min Rain = 0
KFR1 092143Z 05005KT 10/M08 A3031 RMK A01 T01021077  RH  028%=      5-min Rain = 0
KFR1 092144Z 04004KT 10/M08 A3031 RMK A01 T01031075  RH  028%=      5-min Rain = 0
KFR1 092145Z 03005KT 10/M08 A3031 RMK A01 T01041076  RH  027%=      5-min Rain = 0
KFR1 092146Z 04004KT 11/M08 A3031 RMK A01 T01051076  RH  027%=      5-min Rain = 0
KFR1 092147Z 04004KT 11/M08 A3031 RMK A01 T01061075  RH  027%=      5-min Rain = 0
KFR1 092148Z 03004KT 11/M08 A3031 RMK A01 T01061076  RH  027%=      5-min Rain = 0
KFR1 092149Z 01004KT 11/M08 A3031 RMK A01 T01061075  RH  027%=      5-min Rain = 0
KFR1 092150Z 01006KT 11/M08 A3031 RMK A01 T01061075  RH  027%=      5-min Rain = 0
KFR1 092151Z 02007KT 11/M08 A3031 RMK A01 T01051075  RH  027%=      5-min Rain = 0
KFR1 092152Z 01005KT 10/M08 A3031 RMK A01 T01041076  RH  027%=      5-min Rain = 0
KFR1 092153Z 02006KT 10/M08 A3031 RMK A01 T01031075  RH  028%=      5-min Rain = 0
KFR1 092154Z 02006KT 10/M08 A3031 RMK A01 T01041075  RH  028%=      5-min Rain = 0
KFR1 092155Z 02008KT 10/M08 A3031 RMK A01 T01031078  RH  027%=      5-min Rain = 0
KFR1 092156Z 02007KT 10/M08 A3031 RMK A01 T01031078  RH  027%=      5-min Rain = 0
KFR1 092157Z 04005KT 10/M08 A3031 RMK A01 T01031077  RH  027%=      5-min Rain = 0
KFR1 092158Z 02007KT 10/M08 A3031 RMK A01 T01041076  RH  027%=      5-min Rain = 0
KFR1 092159Z 03007KT 10/M08 A3031 RMK A01 T01041075  RH  028%=      5-min Rain = 0
KFR1 092200Z 03005KT 10/M07 A3031 RMK A01 T01041074  RH  028%=      5-min Rain = 0
KFR1 092201Z 03006KT 10/M07 A3031 RMK A01 T01041073  RH  028%=      5-min Rain = 0
KFR1 092202Z 03010KT 10/M08 A3031 RMK A01 T01031075  RH  028%=      5-min Rain = 0
KFR1 092203Z 02006KT 10/M08 A3031 RMK A01 T01021077  RH  028%=      5-min Rain = 0
KFR1 092204Z 02006KT 10/M08 A3031 RMK A01 T01021075  RH  028%=      5-min Rain = 0
KFR1 092205Z 02008KT 10/M07 A3031 RMK A01 T01021074  RH  028%=      5-min Rain = 0
KFR1 092206Z 02007KT 10/M07 A3031 RMK A01 T01011072  RH  029%=      5-min Rain = 0
KFR1 092207Z 02005KT 10/M07 A3031 RMK A01 T01021072  RH  029%=      5-min Rain = 0
KFR1 092208Z 02004KT 10/M07 A3032 RMK A01 T01021070  RH  029%=      5-min Rain = 0
KFR1 092209Z 03004KT 10/M07 A3032 RMK A01 T01011069  RH  029%=      5-min Rain = 0
KFR1 092210Z 02005KT 10/M07 A3032 RMK A01 T01011069  RH  030%=      5-min Rain = 0
KFR1 092211Z 03006KT 10/M07 A3032 RMK A01 T01011069  RH  030%=      5-min Rain = 0
KFR1 092212Z 02005KT 10/M07 A3032 RMK A01 T01011071  RH  029%=      5-min Rain = 0
KFR1 092213Z 02007KT 10/M07 A3032 RMK A01 T01011070  RH  029%=      5-min Rain = 0
KFR1 092214Z 02008KT 10/M07 A3032 RMK A01 T01001070  RH  029%=      5-min Rain = 0
KFR1 092215Z 03008KT 10/M07 A3032 RMK A01 T01001070  RH  029%=      5-min Rain = 0
KFR1 092216Z 03010KT 10/M07 A3032 RMK A01 T00991069  RH  030%=      5-min Rain = 0
KFR1 092217Z 02006KT 10/M07 A3032 RMK A01 T00991068  RH  030%=      5-min Rain = 0
KFR1 092218Z 03007KT 10/M07 A3032 RMK A01 T00981067  RH  031%=      5-min Rain = 0
KFR1 092219Z 03007KT 10/M07 A3032 RMK A01 T00981069  RH  030%=      5-min Rain = 0
KFR1 092220Z 02006KT 10/M07 A3032 RMK A01 T00981070  RH  030%=      5-min Rain = 0
KFR1 092221Z 03006KT 10/M07 A3032 RMK A01 T00981071  RH  030%=      5-min Rain = 0
KFR1 092222Z 03006KT 10/M07 A3032 RMK A01 T00981068  RH  030%=      5-min Rain = 0
KFR1 092223Z 03007KT 10/M07 A3032 RMK A01 T00981067  RH  031%=      5-min Rain = 0
KFR1 092224Z 04011KT 10/M07 A3032 RMK A01 T00971066  RH  031%=      5-min Rain = 0
KFR1 092225Z 03007G12KT 10/M07 A3032 RMK A01 T00971066  RH  031%=      5-min Rain = 0
KFR1 092226Z 03010KT 10/M07 A3032 RMK A01 T00971066  RH  031%=      5-min Rain = 0
KFR1 092227Z 04010KT 10/M07 A3032 RMK A01 T00971069  RH  030%=      5-min Rain = 0
KFR1 092228Z 04009KT 10/M07 A3032 RMK A01 T00971069  RH  030%=      5-min Rain = 0
KFR1 092229Z 03007KT 10/M07 A3032 RMK A01 T00971068  RH  031%=      5-min Rain = 0
KFR1 092230Z 04007KT 10/M07 A3032 RMK A01 T00971066  RH  031%=      5-min Rain = 0
KFR1 092231Z 04008KT 10/M07 A3032 RMK A01 T00961065  RH  031%=      5-min Rain = 0
KFR1 092232Z 05008KT 10/M07 A3032 RMK A01 T00961065  RH  032%=      5-min Rain = 0
KFR1 092233Z 04008KT 10/M07 A3032 RMK A01 T00961066  RH  031%=      5-min Rain = 0
KFR1 092234Z 04009KT 10/M07 A3032 RMK A01 T00961065  RH  032%=      5-min Rain = 0
KFR1 092235Z 04009KT 10/M07 A3032 RMK A01 T00961066  RH  031%=      5-min Rain = 0
KFR1 092236Z 04010KT 10/M07 A3032 RMK A01 T00951067  RH  031%=      5-min Rain = 0
KFR1 092237Z 03010KT 10/M07 A3032 RMK A01 T00951067  RH  031%=      5-min Rain = 0
KFR1 092238Z 04008KT 10/M07 A3032 RMK A01 T00951067  RH  031%=      5-min Rain = 0
KFR1 092239Z 04008KT 10/M07 A3032 RMK A01 T00951066  RH  031%=      5-min Rain = 0
KFR1 092240Z 04008KT 09/M07 A3032 RMK A01 T00941067  RH  031%=      5-min Rain = 0
KFR1 092241Z 04009KT 09/M07 A3032 RMK A01 T00941067  RH  032%=      5-min Rain = 0
KFR1 092242Z 04011KT 09/M07 A3032 RMK A01 T00931067  RH  031%=      5-min Rain = 0
KFR1 092243Z 04007KT 09/M07 A3032 RMK A01 T00931068  RH  031%=      5-min Rain = 0
KFR1 092244Z 04009KT 09/M07 A3032 RMK A01 T00931068  RH  032%=      5-min Rain = 0
KFR1 092245Z 04009KT 09/M07 A3032 RMK A01 T00921068  RH  032%=      5-min Rain = 0
KFR1 092246Z 04008KT 09/M07 A3032 RMK A01 T00921068  RH  032%=      5-min Rain = 0
KFR1 092247Z 04009KT 09/M07 A3032 RMK A01 T00921068  RH  032%=      5-min Rain = 0
KFR1 092248Z 04009KT 09/M07 A3032 RMK A01 T00911068  RH  032%=      5-min Rain = 0
KFR1 092249Z 04008KT 09/M07 A3032 RMK A01 T00911068  RH  032%=      5-min Rain = 0
KFR1 092250Z 04008KT 09/M07 A3032 RMK A01 T00911068  RH  032%=      5-min Rain = 0
KFR1 092251Z 05007KT 09/M07 A3032 RMK A01 T00901068  RH  032%=      5-min Rain = 0
KFR1 092252Z 03008KT 09/M07 A3032 RMK A01 T00901068  RH  032%=      5-min Rain = 0
KFR1 092253Z 04007KT 09/M07 A3032 RMK A01 T00901068  RH  032%=      5-min Rain = 0
KFR1 092254Z 04008KT 09/M07 A3032 RMK A01 T00901067  RH  032%=      5-min Rain = 0
KFR1 092255Z 05006KT 09/M07 A3032 RMK A01 T00901066  RH  033%=      5-min Rain = 0
KFR1 092256Z 04006KT 09/M07 A3032 RMK A01 T00891066  RH  033%=      5-min Rain = 0
KFR1 092257Z 04006KT 09/M07 A3032 RMK A01 T00881066  RH  033%=      5-min Rain = 0
KFR1 092258Z 04008KT 09/M07 A3032 RMK A01 T00881066  RH  033%=      5-min Rain = 0
KFR1 092259Z 03008KT 09/M07 A3032 RMK A01 T00881065  RH  033%=      5-min Rain = 0
KFR1 092300Z 04009KT 09/M06 A3032 RMK A01 T00891064  RH  033%=      5-min Rain = 0
KFR1 092301Z 04010KT 09/M06 A3032 RMK A01 T00891064  RH  033%=      5-min Rain = 0
KFR1 092302Z 04011KT 09/M06 A3032 RMK A01 T00891062  RH  034%=      5-min Rain = 0
KFR1 092303Z 04011KT 09/M06 A3032 RMK A01 T00891062  RH  034%=      5-min Rain = 0
KFR1 092304Z 04011KT 09/M06 A3032 RMK A01 T00891061  RH  034%=      5-min Rain = 0
KFR1 092305Z 04010KT 09/M06 A3032 RMK A01 T00891061  RH  034%=      5-min Rain = 0
KFR1 092306Z 04010KT 09/M06 A3032 RMK A01 T00881060  RH  035%=      5-min Rain = 0
KFR1 092307Z 03010KT 09/M06 A3032 RMK A01 T00881060  RH  035%=      5-min Rain = 0
KFR1 092308Z 04010KT 09/M06 A3032 RMK A01 T00871059  RH  035%=      5-min Rain = 0
KFR1 092309Z 03009KT 09/M06 A3033 RMK A01 T00871058  RH  035%=      5-min Rain = 0
KFR1 092310Z 04009KT 09/M06 A3033 RMK A01 T00871057  RH  036%=      5-min Rain = 0
KFR1 092311Z 03010KT 09/M06 A3033 RMK A01 T00861057  RH  036%=      5-min Rain = 0
KFR1 092312Z 03009KT 09/M06 A3033 RMK A01 T00861057  RH  036%=      5-min Rain = 0
KFR1 092313Z 04009KT 09/M06 A3033 RMK A01 T00851055  RH  037%=      5-min Rain = 0
KFR1 092314Z 03010KT 08/M06 A3033 RMK A01 T00841055  RH  037%=      5-min Rain = 0
KFR1 092315Z 04011KT 08/M06 A3033 RMK A01 T00841055  RH  037%=      5-min Rain = 0
KFR1 092316Z 03009KT 08/M06 A3033 RMK A01 T00841055  RH  037%=      5-min Rain = 0
KFR1 092317Z 03009KT 08/M05 A3033 RMK A01 T00841054  RH  037%=      5-min Rain = 0
KFR1 092318Z 03008KT 08/M05 A3033 RMK A01 T00831054  RH  037%=      5-min Rain = 0
KFR1 092319Z 03009KT 08/M05 A3033 RMK A01 T00821054  RH  037%=      5-min Rain = 0
KFR1 092320Z 03007KT 08/M06 A3034 RMK A01 T00821055  RH  037%=      5-min Rain = 0
KFR1 092321Z 02010KT 08/M06 A3034 RMK A01 T00811056  RH  037%=      5-min Rain = 0
KFR1 092322Z 03008KT 08/M06 A3034 RMK A01 T00811056  RH  037%=      5-min Rain = 0
KFR1 092323Z 04008KT 08/M06 A3034 RMK A01 T00811056  RH  037%=      5-min Rain = 0
KFR1 092324Z 04009KT 08/M06 A3034 RMK A01 T00801056  RH  037%=      5-min Rain = 0
KFR1 092325Z 03007KT 08/M06 A3034 RMK A01 T00801056  RH  038%=      5-min Rain = 0
KFR1 092326Z 04009KT 08/M06 A3034 RMK A01 T00791055  RH  038%=      5-min Rain = 0
KFR1 092327Z 03009KT 08/M05 A3034 RMK A01 T00781054  RH  039%=      5-min Rain = 0
KFR1 092328Z 04008KT 08/M05 A3034 RMK A01 T00781054  RH  039%=      5-min Rain = 0
KFR1 092329Z 04009KT 08/M05 A3034 RMK A01 T00791054  RH  039%=      5-min Rain = 0
KFR1 092330Z 04009KT 08/M05 A3034 RMK A01 T00791054  RH  039%=      5-min Rain = 0
KFR1 092331Z 03010KT 08/M05 A3034 RMK A01 T00781053  RH  039%=      5-min Rain = 0
KFR1 092332Z 03011KT 08/M05 A3034 RMK A01 T00791052  RH  039%=      5-min Rain = 0
KFR1 092333Z 03008KT 08/M05 A3034 RMK A01 T00791051  RH  039%=      5-min Rain = 0
KFR1 092334Z 03007KT 08/M05 A3034 RMK A01 T00791052  RH  039%=      5-min Rain = 0
KFR1 092335Z 04008KT 08/M05 A3034 RMK A01 T00781051  RH  039%=      5-min Rain = 0
KFR1 092336Z 03007KT 08/M05 A3034 RMK A01 T00771051  RH  040%=      5-min Rain = 0
KFR1 092337Z 04008KT 08/M05 A3034 RMK A01 T00761051  RH  040%=      5-min Rain = 0
KFR1 092338Z 04007KT 08/M05 A3034 RMK A01 T00761051  RH  040%=      5-min Rain = 0
KFR1 092339Z 04007KT 08/M05 A3034 RMK A01 T00751051  RH  041%=      5-min Rain = 0
KFR1 092340Z 04009KT 08/M05 A3034 RMK A01 T00751050  RH  041%=      5-min Rain = 0
KFR1 092341Z 03008KT 08/M05 A3034 RMK A01 T00751050  RH  041%=      5-min Rain = 0
KFR1 092342Z 03007KT 08/M05 A3034 RMK A01 T00751050  RH  041%=      5-min Rain = 0
KFR1 092343Z 04008KT 07/M05 A3034 RMK A01 T00741050  RH  041%=      5-min Rain = 0
KFR1 092344Z 04006KT 07/M05 A3034 RMK A01 T00741051  RH  041%=      5-min Rain = 0
KFR1 092345Z 04006KT 07/M05 A3034 RMK A01 T00731051  RH  041%=      5-min Rain = 0
KFR1 092346Z 04008KT 07/M05 A3034 RMK A01 T00731051  RH  041%=      5-min Rain = 0
KFR1 092347Z 03007KT 07/M05 A3034 RMK A01 T00721052  RH  041%=      5-min Rain = 0
KFR1 092348Z 04006KT 07/M05 A3034 RMK A01 T00731052  RH  041%=      5-min Rain = 0
KFR1 092349Z 04007KT 07/M05 A3034 RMK A01 T00721052  RH  041%=      5-min Rain = 0
KFR1 092350Z 04006KT 07/M05 A3034 RMK A01 T00721052  RH  041%=      5-min Rain = 0
KFR1 092351Z 04006KT 07/M05 A3034 RMK A01 T00711052  RH  041%=      5-min Rain = 0
KFR1 092352Z 03006KT 07/M05 A3034 RMK A01 T00701052  RH  041%=      5-min Rain = 0
KFR1 092353Z 04007KT 07/M05 A3034 RMK A01 T00691052  RH  042%=      5-min Rain = 0
KFR1 092354Z 04006KT 07/M05 A3034 RMK A01 T00691053  RH  041%=      5-min Rain = 0
KFR1 092355Z 03007KT 07/M05 A3034 RMK A01 T00691054  RH  041%=      5-min Rain = 0
KFR1 092356Z 04007KT 07/M05 A3034 RMK A01 T00691054  RH  041%=      5-min Rain = 0
KFR1 092357Z 03007KT 07/M06 A3034 RMK A01 T00691055  RH  041%=      5-min Rain = 0
KFR1 092358Z 04007KT 07/M06 A3034 RMK A01 T00701055  RH  041%=      5-min Rain = 0
KFR1 092359Z 04007KT 07/M06 A3034 RMK A01 T00691056  RH  041%=      5-min Rain = 0
KFR1 100000Z 04007KT 07/M06 A3034 RMK A01 T00691056  RH  041%=      5-min Rain = 0
KFR1 100001Z 04007KT 07/M06 A3034 RMK A01 T00691056  RH  041%=      5-min Rain = 0
KFR1 100002Z 04006KT 07/M06 A3034 RMK A01 T00691055  RH  041%=      5-min Rain = 0
KFR1 100003Z 05006KT 07/M06 A3034 RMK A01 T00681055  RH  041%=      5-min Rain = 0
KFR1 100004Z 05006KT 07/M06 A3034 RMK A01 T00681055  RH  041%=      5-min Rain = 0
KFR1 100005Z 05006KT 07/M06 A3034 RMK A01 T00681055  RH  041%=      5-min Rain = 0
KFR1 100006Z 05005KT 07/M05 A3034 RMK A01 T00681054  RH  042%=      5-min Rain = 0
KFR1 100007Z 05006KT 07/M05 A3034 RMK A01 T00681053  RH  042%=      5-min Rain = 0
KFR1 100008Z 06006KT 07/M05 A3034 RMK A01 T00671053  RH  042%=      5-min Rain = 0
KFR1 100009Z 06006KT 07/M05 A3034 RMK A01 T00671052  RH  042%=      5-min Rain = 0
KFR1 100010Z 06005KT 07/M05 A3034 RMK A01 T00661051  RH  043%=      5-min Rain = 0
KFR1 100011Z 06004KT 07/M05 A3034 RMK A01 T00651052  RH  043%=      5-min Rain = 0
KFR1 100012Z 08004KT 06/M05 A3034 RMK A01 T00631053  RH  043%=      5-min Rain = 0
KFR1 100013Z 08003KT 06/M06 A3034 RMK A01 T00621056  RH  043%=      5-min Rain = 0
KFR1 100014Z 09003KT 06/M06 A3034 RMK A01 T00611058  RH  042%=      5-min Rain = 0
KFR1 100015Z 09003KT 06/M06 A3034 RMK A01 T00621058  RH  042%=      5-min Rain = 0
KFR1 100016Z 09003KT 06/M06 A3034 RMK A01 T00631059  RH  041%=      5-min Rain = 0
KFR1 100017Z 09003KT 06/M06 A3034 RMK A01 T00641061  RH  041%=      5-min Rain = 0
KFR1 100018Z 09003KT 06/M06 A3034 RMK A01 T00641062  RH  040%=      5-min Rain = 0
KFR1 100019Z 09003KT 06/M06 A3034 RMK A01 T00641063  RH  040%=      5-min Rain = 0
KFR1 100020Z 08003KT 06/M06 A3034 RMK A01 T00621064  RH  040%=      5-min Rain = 0
KFR1 100021Z 07004KT 06/M07 A3034 RMK A01 T00591066  RH  040%=      5-min Rain = 0
KFR1 100022Z 07004KT 06/M07 A3034 RMK A01 T00561067  RH  041%=      5-min Rain = 0
KFR1 100023Z 06004KT 06/M07 A3034 RMK A01 T00561066  RH  041%=      5-min Rain = 0
KFR1 100024Z 07004KT 06/M07 A3034 RMK A01 T00571066  RH  041%=      5-min Rain = 0
KFR1 100025Z 06005KT 06/M07 A3034 RMK A01 T00581066  RH  041%=      5-min Rain = 0
KFR1 100026Z 06004KT 06/M07 A3034 RMK A01 T00581066  RH  040%=      5-min Rain = 0
KFR1 100027Z 06004KT 06/M07 A3034 RMK A01 T00571067  RH  040%=      5-min Rain = 0
KFR1 100028Z 06005KT 06/M07 A3035 RMK A01 T00561068  RH  040%=      5-min Rain = 0
KFR1 100029Z 06004KT 06/M07 A3035 RMK A01 T00571068  RH  040%=      5-min Rain = 0
KFR1 100030Z 06004KT 06/M07 A3035 RMK A01 T00571069  RH  040%=      5-min Rain = 0
KFR1 100031Z 05003KT 06/M07 A3035 RMK A01 T00591069  RH  040%=      5-min Rain = 0
KFR1 100032Z 05003KT 06/M07 A3035 RMK A01 T00591069  RH  039%=      5-min Rain = 0
KFR1 100033Z 05004KT 06/M07 A3035 RMK A01 T00591069  RH  039%=      5-min Rain = 0
KFR1 100034Z 05003KT 06/M07 A3035 RMK A01 T00591069  RH  039%=      5-min Rain = 0
KFR1 100035Z 05003KT 06/M07 A3035 RMK A01 T00591069  RH  039%=      5-min Rain = 0
KFR1 100036Z 04003KT 06/M07 A3035 RMK A01 T00601069  RH  039%=      5-min Rain = 0
KFR1 100037Z 03002KT 06/M07 A3035 RMK A01 T00601069  RH  039%=      5-min Rain = 0
KFR1 100038Z 02002KT 06/M07 A3035 RMK A01 T00601069  RH  039%=      5-min Rain = 0
KFR1 100039Z 00001KT 06/M07 A3036 RMK A01 T00591069  RH  039%=      5-min Rain = 0
KFR1 100040Z 35001KT 06/M07 A3036 RMK A01 T00581069  RH  039%=      5-min Rain = 0
KFR1 100041Z 34001KT 06/M07 A3036 RMK A01 T00581069  RH  040%=      5-min Rain = 0
KFR1 100042Z 33001KT 06/M07 A3036 RMK A01 T00581069  RH  040%=      5-min Rain = 0
KFR1 100043Z 33001KT 06/M07 A3036 RMK A01 T00581069  RH  040%=      5-min Rain = 0
KFR1 100044Z 34001KT 06/M07 A3035 RMK A01 T00581068  RH  040%=      5-min Rain = 0
KFR1 100045Z 34001KT 06/M07 A3035 RMK A01 T00581068  RH  040%=      5-min Rain = 0
KFR1 100046Z 33002KT 06/M07 A3035 RMK A01 T00571068  RH  040%=      5-min Rain = 0
KFR1 100047Z 32002KT 06/M07 A3035 RMK A01 T00571069  RH  040%=      5-min Rain = 0
KFR1 100048Z 31001KT 06/M07 A3035 RMK A01 T00571067  RH  040%=      5-min Rain = 0
KFR1 100049Z 31001KT 06/M07 A3035 RMK A01 T00571066  RH  041%=      5-min Rain = 0
KFR1 100050Z 30001KT 06/M07 A3035 RMK A01 T00571066  RH  041%=      5-min Rain = 0
KFR1 100051Z 31001KT 06/M07 A3035 RMK A01 T00571065  RH  041%=      5-min Rain = 0
KFR1 100052Z 32001KT 06/M06 A3035 RMK A01 T00561064  RH  042%=      5-min Rain = 0
KFR1 100053Z 32001KT 06/M06 A3035 RMK A01 T00551061  RH  043%=      5-min Rain = 0
KFR1 100054Z 33001KT 06/M06 A3035 RMK A01 T00551059  RH  044%=      5-min Rain = 0
KFR1 100055Z 33001KT 06/M06 A3035 RMK A01 T00551056  RH  045%=      5-min Rain = 0
KFR1 100056Z 32001KT 06/M05 A3035 RMK A01 T00551053  RH  046%=      5-min Rain = 0
KFR1 100057Z 32001KT 06/M05 A3035 RMK A01 T00561051  RH  046%=      5-min Rain = 0
KFR1 100058Z 32001KT 06/M05 A3035 RMK A01 T00571045  RH  048%=      5-min Rain = 0
KFR1 100059Z 32001KT 06/M04 A3035 RMK A01 T00571038  RH  050%=      5-min Rain = 0
KFR1 100100Z 34001KT 06/M03 A3035 RMK A01 T00581033  RH  052%=      5-min Rain = 0
KFR1 100101Z 35001KT 06/M03 A3035 RMK A01 T00581034  RH  051%=      5-min Rain = 0
KFR1 100102Z 01001KT 06/M04 A3035 RMK A01 T00581036  RH  051%=      5-min Rain = 0
KFR1 100103Z 01001KT 06/M04 A3035 RMK A01 T00581037  RH  050%=      5-min Rain = 0
KFR1 100104Z 01001KT 06/M04 A3035 RMK A01 T00581037  RH  050%=      5-min Rain = 0
KFR1 100105Z 36001KT 06/M04 A3035 RMK A01 T00591038  RH  050%=      5-min Rain = 0
KFR1 100106Z 35002KT 06/M04 A3035 RMK A01 T00591039  RH  049%=      5-min Rain = 0
KFR1 100107Z 35002KT 06/M04 A3035 RMK A01 T00591042  RH  048%=      5-min Rain = 0
KFR1 100108Z 35002KT 06/M04 A3035 RMK A01 T00591044  RH  048%=      5-min Rain = 0
KFR1 100109Z 35002KT 06/M04 A3035 RMK A01 T00591044  RH  048%=      5-min Rain = 0
KFR1 100110Z 35001KT 06/M04 A3035 RMK A01 T00591043  RH  048%=      5-min Rain = 0
KFR1 100111Z 00001KT 06/M04 A3035 RMK A01 T00591041  RH  049%=      5-min Rain = 0
KFR1 100112Z 00001KT 06/M04 A3035 RMK A01 T00591041  RH  048%=      5-min Rain = 0
KFR1 100113Z 02001KT 06/M04 A3035 RMK A01 T00591041  RH  049%=      5-min Rain = 0
KFR1 100114Z 02002KT 06/M04 A3035 RMK A01 T00581042  RH  049%=      5-min Rain = 0
KFR1 100115Z 01001KT 06/M04 A3035 RMK A01 T00581041  RH  049%=      5-min Rain = 0
KFR1 100116Z 01001KT 06/M04 A3035 RMK A01 T00581041  RH  049%=      5-min Rain = 0
KFR1 100117Z 36001KT 06/M04 A3036 RMK A01 T00581039  RH  050%=      5-min Rain = 0
KFR1 100118Z 35002KT 06/M04 A3036 RMK A01 T00581038  RH  050%=      5-min Rain = 0
KFR1 100119Z 35002KT 06/M04 A3036 RMK A01 T00581038  RH  050%=      5-min Rain = 0
KFR1 100120Z 34002KT 06/M04 A3036 RMK A01 T00581038  RH  050%=      5-min Rain = 0
KFR1 100121Z 33002KT 06/M04 A3036 RMK A01 T00571038  RH  050%=      5-min Rain = 0
KFR1 100122Z 32002KT 06/M04 A3036 RMK A01 T00571037  RH  051%=      5-min Rain = 0
KFR1 100123Z 29002KT 06/M04 A3036 RMK A01 T00571036  RH  051%=      5-min Rain = 0
KFR1 100124Z 30002KT 06/M04 A3036 RMK A01 T00551041  RH  050%=      5-min Rain = 0
KFR1 100125Z 31002KT 05/M05 A3036 RMK A01 T00531045  RH  049%=      5-min Rain = 0
KFR1 100126Z 31002KT 05/M05 A3036 RMK A01 T00521049  RH  048%=      5-min Rain = 0
KFR1 100127Z 31002KT 05/M05 A3036 RMK A01 T00511049  RH  049%=      5-min Rain = 0
KFR1 100128Z 31002KT 05/M05 A3036 RMK A01 T00491045  RH  050%=      5-min Rain = 0
KFR1 100129Z 30002KT 05/M04 A3036 RMK A01 T00481043  RH  052%=      5-min Rain = 0
KFR1 100130Z 29002KT 05/M04 A3036 RMK A01 T00471040  RH  053%=      5-min Rain = 0
KFR1 100131Z 28001KT 05/M04 A3036 RMK A01 T00461038  RH  054%=      5-min Rain = 0
KFR1 100132Z 27001KT 05/M04 A3035 RMK A01 T00461039  RH  054%=      5-min Rain = 0
KFR1 100133Z 27001KT 05/M04 A3035 RMK A01 T00461040  RH  054%=      5-min Rain = 0
KFR1 100134Z 26002KT 05/M04 A3035 RMK A01 T00461040  RH  054%=      5-min Rain = 0
KFR1 100135Z 25002KT 05/M04 A3035 RMK A01 T00471039  RH  054%=      5-min Rain = 0
KFR1 100136Z 25002KT 05/M04 A3035 RMK A01 T00471040  RH  053%=      5-min Rain = 0
KFR1 100137Z 24002KT 05/M04 A3035 RMK A01 T00471041  RH  053%=      5-min Rain = 0
KFR1 100138Z 24002KT 05/M04 A3035 RMK A01 T00461042  RH  053%=      5-min Rain = 0
KFR1 100139Z 23001KT 04/M04 A3035 RMK A01 T00441041  RH  054%=      5-min Rain = 0
KFR1 100140Z 22001KT 04/M04 A3035 RMK A01 T00431041  RH  054%=      5-min Rain = 0
KFR1 100141Z 22001KT 04/M04 A3035 RMK A01 T00431042  RH  054%=      5-min Rain = 0
KFR1 100142Z 21001KT 04/M04 A3035 RMK A01 T00431044  RH  053%=      5-min Rain = 0
KFR1 100143Z 21001KT 04/M05 A3035 RMK A01 T00431047  RH  052%=      5-min Rain = 0
KFR1 100144Z 21001KT 04/M05 A3035 RMK A01 T00421054  RH  050%=      5-min Rain = 0
KFR1 100145Z 22001KT 04/M06 A3035 RMK A01 T00411058  RH  049%=      5-min Rain = 0
KFR1 100146Z 24001KT 04/M06 A3035 RMK A01 T00401058  RH  049%=      5-min Rain = 0
KFR1 100147Z 25001KT 04/M06 A3035 RMK A01 T00401058  RH  049%=      5-min Rain = 0
KFR1 100148Z 25001KT 04/M06 A3035 RMK A01 T00401058  RH  049%=      5-min Rain = 0
KFR1 100149Z 26001KT 04/M06 A3035 RMK A01 T00401057  RH  049%=      5-min Rain = 0
KFR1 100150Z 26000KT 04/M06 A3035 RMK A01 T00411056  RH  049%=      5-min Rain = 0
KFR1 100151Z 25000KT 04/M05 A3035 RMK A01 T00421054  RH  050%=      5-min Rain = 0
KFR1 100152Z 00000KT 04/M06 A3035 RMK A01 T00421055  RH  049%=      5-min Rain = 0
KFR1 100153Z 00000KT 04/M06 A3036 RMK A01 T00421055  RH  049%=      5-min Rain = 0
KFR1 100154Z 00000KT 04/M06 A3036 RMK A01 T00431055  RH  049%=      5-min Rain = 0
KFR1 100155Z 00000KT 04/M06 A3036 RMK A01 T00421056  RH  049%=      5-min Rain = 0
KFR1 100156Z 00000KT 04/M06 A3036 RMK A01 T00411055  RH  049%=      5-min Rain = 0
KFR1 100157Z 00000KT 04/M06 A3036 RMK A01 T00411055  RH  050%=      5-min Rain = 0
KFR1 100158Z 33001KT 04/M05 A3036 RMK A01 T00411053  RH  050%=      5-min Rain = 0
KFR1 100159Z 00000KT 04/M05 A3036 RMK A01 T00411053  RH  050%=      5-min Rain = 0
KFR1 100200Z 00000KT 04/M05 A3036 RMK A01 T00401053  RH  051%=      5-min Rain = 0
KFR1 100201Z 34000KT 04/M05 A3036 RMK A01 T00401052  RH  051%=      5-min Rain = 0
KFR1 100202Z 31001KT 04/M05 A3036 RMK A01 T00401051  RH  052%=      5-min Rain = 0
KFR1 100203Z 28001KT 04/M05 A3036 RMK A01 T00391050  RH  052%=      5-min Rain = 0
KFR1 100204Z 27001KT 04/M05 A3036 RMK A01 T00391050  RH  052%=      5-min Rain = 0
KFR1 100205Z 27002KT 04/M05 A3036 RMK A01 T00391049  RH  053%=      5-min Rain = 0
KFR1 100206Z 28002KT 04/M05 A3036 RMK A01 T00391049  RH  053%=      5-min Rain = 0
KFR1 100207Z 29002KT 04/M05 A3036 RMK A01 T00401049  RH  052%=      5-min Rain = 0
KFR1 100208Z 29002KT 04/M05 A3036 RMK A01 T00391049  RH  053%=      5-min Rain = 0
KFR1 100209Z 30003KT 04/M05 A3036 RMK A01 T00381049  RH  053%=      5-min Rain = 0
KFR1 100210Z 30002KT 04/M05 A3036 RMK A01 T00381049  RH  053%=      5-min Rain = 0
KFR1 100211Z 30002KT 04/M05 A3036 RMK A01 T00381049  RH  053%=      5-min Rain = 0
KFR1 100212Z 30002KT 04/M05 A3036 RMK A01 T00401050  RH  052%=      5-min Rain = 0
KFR1 100213Z 30002KT 04/M05 A3037 RMK A01 T00411051  RH  051%=      5-min Rain = 0
KFR1 100214Z 30002KT 04/M05 A3037 RMK A01 T00421051  RH  051%=      5-min Rain = 0
KFR1 100215Z 30002KT 04/M05 A3037 RMK A01 T00421053  RH  050%=      5-min Rain = 0
KFR1 100216Z 30002KT 04/M05 A3037 RMK A01 T00431053  RH  050%=      5-min Rain = 0
KFR1 100217Z 30002KT 04/M05 A3037 RMK A01 T00431053  RH  050%=      5-min Rain = 0
KFR1 100218Z 29002KT 04/M05 A3037 RMK A01 T00431053  RH  050%=      5-min Rain = 0
KFR1 100219Z 28002KT 04/M05 A3037 RMK A01 T00431052  RH  050%=      5-min Rain = 0
KFR1 100220Z 29002KT 04/M05 A3037 RMK A01 T00431051  RH  050%=      5-min Rain = 0
KFR1 100221Z 30002KT 04/M05 A3037 RMK A01 T00431050  RH  051%=      5-min Rain = 0
KFR1 100222Z 29002KT 04/M05 A3037 RMK A01 T00431049  RH  051%=      5-min Rain = 0
KFR1 100223Z 29002KT 04/M05 A3037 RMK A01 T00431048  RH  052%=      5-min Rain = 0
KFR1 100224Z 28002KT 04/M05 A3037 RMK A01 T00431047  RH  052%=      5-min Rain = 0
KFR1 100225Z 29002KT 04/M05 A3037 RMK A01 T00421047  RH  052%=      5-min Rain = 0
KFR1 100226Z 29001KT 04/M05 A3037 RMK A01 T00421046  RH  053%=      5-min Rain = 0
KFR1 100227Z 28001KT 04/M05 A3037 RMK A01 T00421045  RH  053%=      5-min Rain = 0
KFR1 100228Z 28001KT 04/M05 A3037 RMK A01 T00421045  RH  053%=      5-min Rain = 0
KFR1 100229Z 29001KT 04/M04 A3036 RMK A01 T00411044  RH  054%=      5-min Rain = 0
KFR1 100230Z 29001KT 04/M04 A3036 RMK A01 T00411044  RH  054%=      5-min Rain = 0
KFR1 100231Z 29001KT 04/M04 A3036 RMK A01 T00411043  RH  054%=      5-min Rain = 0
KFR1 100232Z 29001KT 04/M04 A3036 RMK A01 T00411043  RH  054%=      5-min Rain = 0
KFR1 100233Z 29001KT 04/M05 A3036 RMK A01 T00411045  RH  053%=      5-min Rain = 0
KFR1 100234Z 29001KT 04/M05 A3036 RMK A01 T00411046  RH  053%=      5-min Rain = 0
KFR1 100235Z 28001KT 04/M05 A3036 RMK A01 T00411046  RH  053%=      5-min Rain = 0
KFR1 100236Z 27001KT 04/M05 A3036 RMK A01 T00411045  RH  053%=      5-min Rain = 0
KFR1 100237Z 27001KT 04/M05 A3036 RMK A01 T00411046  RH  053%=      5-min Rain = 0
KFR1 100238Z 27001KT 04/M05 A3036 RMK A01 T00411045  RH  054%=      5-min Rain = 0
KFR1 100239Z 29001KT 04/M05 A3036 RMK A01 T00401048  RH  053%=      5-min Rain = 0
KFR1 100240Z 31002KT 04/M05 A3037 RMK A01 T00411050  RH  052%=      5-min Rain = 0
KFR1 100241Z 31002KT 04/M05 A3037 RMK A01 T00401049  RH  052%=      5-min Rain = 0
KFR1 100242Z 31002KT 04/M05 A3037 RMK A01 T00391048  RH  053%=      5-min Rain = 0
KFR1 100243Z 31002KT 04/M04 A3037 RMK A01 T00371044  RH  055%=      5-min Rain = 0
KFR1 100244Z 32002KT 04/M04 A3037 RMK A01 T00361042  RH  057%=      5-min Rain = 0
KFR1 100245Z 31002KT 04/M04 A3037 RMK A01 T00351041  RH  057%=      5-min Rain = 0
KFR1 100246Z 30002KT 03/M04 A3037 RMK A01 T00341040  RH  059%=      5-min Rain = 0
KFR1 100247Z 30001KT 03/M04 A3037 RMK A01 T00331037  RH  060%=      5-min Rain = 0
KFR1 100248Z 30002KT 03/M04 A3037 RMK A01 T00321036  RH  061%=      5-min Rain = 0
KFR1 100249Z 30002KT 03/M04 A3037 RMK A01 T00311035  RH  062%=      5-min Rain = 0
KFR1 100250Z 30002KT 03/M04 A3037 RMK A01 T00301035  RH  062%=      5-min Rain = 0
KFR1 100251Z 30002KT 03/M04 A3037 RMK A01 T00291036  RH  062%=      5-min Rain = 0
KFR1 100252Z 30001KT 03/M04 A3037 RMK A01 T00281036  RH  063%=      5-min Rain = 0
KFR1 100253Z 32001KT 03/M04 A3037 RMK A01 T00281036  RH  063%=      5-min Rain = 0
KFR1 100254Z 36002KT 03/M04 A3037 RMK A01 T00271036  RH  063%=      5-min Rain = 0
KFR1 100255Z 33001KT 03/M04 A3037 RMK A01 T00271035  RH  063%=      5-min Rain = 0
KFR1 100256Z 34001KT 03/M03 A3037 RMK A01 T00281034  RH  063%=      5-min Rain = 0
KFR1 100257Z 32001KT 03/M04 A3037 RMK A01 T00281035  RH  063%=      5-min Rain = 0
KFR1 100258Z 32001KT 03/M04 A3037 RMK A01 T00281036  RH  063%=      5-min Rain = 0
KFR1 100259Z 34001KT 03/M04 A3037 RMK A01 T00281036  RH  063%=      5-min Rain = 0
KFR1 100300Z 33001KT 03/M04 A3037 RMK A01 T00281036  RH  063%=      5-min Rain = 0
KFR1 100301Z 33001KT 03/M04 A3037 RMK A01 T00281037  RH  062%=      5-min Rain = 0
KFR1 100302Z 35001KT 03/M04 A3037 RMK A01 T00281037  RH  062%=      5-min Rain = 0
KFR1 100303Z 00001KT 03/M04 A3037 RMK A01 T00281038  RH  062%=      5-min Rain = 0
KFR1 100304Z 01002KT 03/M04 A3037 RMK A01 T00281038  RH  062%=      5-min Rain = 0
KFR1 100305Z 00002KT 03/M04 A3037 RMK A01 T00271039  RH  062%=      5-min Rain = 0
KFR1 100306Z 00002KT 03/M04 A3037 RMK A01 T00261040  RH  061%=      5-min Rain = 0
KFR1 100307Z 00002KT 03/M04 A3037 RMK A01 T00251042  RH  061%=      5-min Rain = 0
KFR1 100308Z 01002KT 03/M04 A3037 RMK A01 T00251042  RH  061%=      5-min Rain = 0
KFR1 100309Z 01002KT 02/M04 A3037 RMK A01 T00241042  RH  061%=      5-min Rain = 0
KFR1 100310Z 01002KT 02/M04 A3037 RMK A01 T00241042  RH  062%=      5-min Rain = 0
KFR1 100311Z 01002KT 03/M04 A3037 RMK A01 T00251041  RH  062%=      5-min Rain = 0
KFR1 100312Z 01002KT 03/M04 A3037 RMK A01 T00251040  RH  062%=      5-min Rain = 0
KFR1 100313Z 01002KT 03/M04 A3037 RMK A01 T00251040  RH  062%=      5-min Rain = 0
KFR1 100314Z 01002KT 03/M04 A3037 RMK A01 T00251039  RH  063%=      5-min Rain = 0
KFR1 100315Z 01001KT 03/M04 A3037 RMK A01 T00251038  RH  063%=      5-min Rain = 0
KFR1 100316Z 02001KT 02/M04 A3037 RMK A01 T00241037  RH  064%=      5-min Rain = 0
KFR1 100317Z 02001KT 02/M04 A3037 RMK A01 T00241036  RH  064%=      5-min Rain = 0
KFR1 100318Z 01001KT 02/M04 A3037 RMK A01 T00231036  RH  065%=      5-min Rain = 0
KFR1 100319Z 01001KT 02/M04 A3037 RMK A01 T00231036  RH  065%=      5-min Rain = 0
KFR1 100320Z 01001KT 02/M04 A3037 RMK A01 T00221036  RH  066%=      5-min Rain = 0
KFR1 100321Z 01002KT 02/M04 A3037 RMK A01 T00211036  RH  066%=      5-min Rain = 0
KFR1 100322Z 01002KT 02/M04 A3037 RMK A01 T00211036  RH  066%=      5-min Rain = 0
KFR1 100323Z 02002KT 02/M04 A3037 RMK A01 T00201037  RH  066%=      5-min Rain = 0
KFR1 100324Z 02002KT 02/M04 A3037 RMK A01 T00201039  RH  065%=      5-min Rain = 0
KFR1 100325Z 02002KT 02/M04 A3037 RMK A01 T00201039  RH  065%=      5-min Rain = 0
KFR1 100326Z 02002KT 02/M04 A3037 RMK A01 T00201039  RH  065%=      5-min Rain = 0
KFR1 100327Z 02002KT 02/M04 A3037 RMK A01 T00201039  RH  065%=      5-min Rain = 0
KFR1 100328Z 03002KT 02/M04 A3037 RMK A01 T00201039  RH  065%=      5-min Rain = 0
KFR1 100329Z 06001KT 02/M04 A3037 RMK A01 T00201039  RH  065%=      5-min Rain = 0
KFR1 100330Z 08001KT 02/M04 A3037 RMK A01 T00191039  RH  065%=      5-min Rain = 0
KFR1 100331Z 08001KT 02/M04 A3037 RMK A01 T00201039  RH  065%=      5-min Rain = 0
KFR1 100332Z 06001KT 02/M04 A3037 RMK A01 T00191039  RH  065%=      5-min Rain = 0
KFR1 100333Z 05001KT 02/M04 A3037 RMK A01 T00201040  RH  065%=      5-min Rain = 0
KFR1 100334Z 05001KT 02/M04 A3037 RMK A01 T00201040  RH  065%=      5-min Rain = 0
KFR1 100335Z 00000KT 02/M04 A3037 RMK A01 T00201039  RH  065%=      5-min Rain = 0
KFR1 100336Z 00000KT 02/M04 A3037 RMK A01 T00201039  RH  065%=      5-min Rain = 0
KFR1 100337Z 00000KT 02/M04 A3037 RMK A01 T00201039  RH  065%=      5-min Rain = 0
KFR1 100338Z 00000KT 02/M04 A3037 RMK A01 T00211040  RH  064%=      5-min Rain = 0
KFR1 100339Z 00000KT 02/M04 A3037 RMK A01 T00201042  RH  064%=      5-min Rain = 0
KFR1 100340Z 24001KT 02/M04 A3037 RMK A01 T00181042  RH  064%=      5-min Rain = 0
KFR1 100341Z 24001KT 02/M04 A3037 RMK A01 T00171042  RH  065%=      5-min Rain = 0
KFR1 100342Z 25002KT 02/M04 A3037 RMK A01 T00161042  RH  065%=      5-min Rain = 0
KFR1 100343Z 25002KT 02/M04 A3037 RMK A01 T00151042  RH  066%=      5-min Rain = 0
KFR1 100344Z 24001KT 01/M04 A3037 RMK A01 T00141043  RH  066%=      5-min Rain = 0
KFR1 100345Z 23002KT 01/M04 A3037 RMK A01 T00131043  RH  066%=      5-min Rain = 0
KFR1 100346Z 23002KT 01/M04 A3037 RMK A01 T00131042  RH  067%=      5-min Rain = 0
KFR1 100347Z 22003KT 01/M04 A3036 RMK A01 T00131042  RH  067%=      5-min Rain = 0
KFR1 100348Z 22002KT 01/M05 A3036 RMK A01 T00111046  RH  066%=      5-min Rain = 0
KFR1 100349Z 22002KT 01/M05 A3036 RMK A01 T00071053  RH  065%=      5-min Rain = 0
KFR1 100350Z 21002KT 00/M05 A3036 RMK A01 T00041052  RH  066%=      5-min Rain = 0
KFR1 100351Z 21002KT 00/M05 A3036 RMK A01 T00041049  RH  067%=      5-min Rain = 0
KFR1 100352Z 22002KT 01/M05 A3036 RMK A01 T00061048  RH  067%=      5-min Rain = 0
KFR1 100353Z 22002KT 01/M05 A3036 RMK A01 T00061050  RH  066%=      5-min Rain = 0
KFR1 100354Z 22002KT 01/M05 A3036 RMK A01 T00071052  RH  065%=      5-min Rain = 0
KFR1 100355Z 22002KT 01/M05 A3036 RMK A01 T00081050  RH  065%=      5-min Rain = 0
KFR1 100356Z 23002KT 01/M05 A3036 RMK A01 T00091051  RH  065%=      5-min Rain = 0
KFR1 100357Z 23002KT 01/M05 A3036 RMK A01 T00091051  RH  064%=      5-min Rain = 0
KFR1 100358Z 23002KT 01/M05 A3036 RMK A01 T00091052  RH  063%=      5-min Rain = 0
KFR1 100359Z 23002KT 01/M05 A3036 RMK A01 T00101053  RH  063%=      5-min Rain = 0
KFR1 100400Z 23002KT 01/M05 A3036 RMK A01 T00101054  RH  062%=      5-min Rain = 0
KFR1 100401Z 22003KT 01/M06 A3036 RMK A01 T00111055  RH  061%=      5-min Rain = 0
KFR1 100402Z 22003KT 01/M06 A3036 RMK A01 T00111059  RH  060%=      5-min Rain = 0
KFR1 100403Z 22002KT 01/M06 A3036 RMK A01 T00121062  RH  058%=      5-min Rain = 0
KFR1 100404Z 23003KT 01/M06 A3036 RMK A01 T00121063  RH  057%=      5-min Rain = 0
KFR1 100405Z 23003KT 01/M06 A3036 RMK A01 T00101064  RH  058%=      5-min Rain = 0
KFR1 100406Z 22003KT 01/M06 A3036 RMK A01 T00081064  RH  059%=      5-min Rain = 0
KFR1 100407Z 22003KT 01/M06 A3036 RMK A01 T00071061  RH  060%=      5-min Rain = 0
KFR1 100408Z 22003KT 01/M06 A3036 RMK A01 T00071057  RH  062%=      5-min Rain = 0
KFR1 100409Z 22003KT 01/M06 A3036 RMK A01 T00081059  RH  061%=      5-min Rain = 0
KFR1 100410Z 23002KT 01/M06 A3036 RMK A01 T00081063  RH  059%=      5-min Rain = 0
KFR1 100411Z 22003KT 01/M07 A3036 RMK A01 T00081065  RH  058%=      5-min Rain = 0
KFR1 100412Z 22003KT 01/M07 A3036 RMK A01 T00091066  RH  057%=      5-min Rain = 0
KFR1 100413Z 22003KT 01/M07 A3036 RMK A01 T00101066  RH  057%=      5-min Rain = 0
KFR1 100414Z 22003KT 01/M07 A3036 RMK A01 T00101066  RH  057%=      5-min Rain = 0
KFR1 100415Z 22004KT 01/M07 A3036 RMK A01 T00111066  RH  056%=      5-min Rain = 0
KFR1 100416Z 23003KT 01/M07 A3036 RMK A01 T00101066  RH  057%=      5-min Rain = 0
KFR1 100417Z 23003KT 01/M07 A3036 RMK A01 T00091066  RH  057%=      5-min Rain = 0
KFR1 100418Z 23003KT 01/M07 A3036 RMK A01 T00091066  RH  057%=      5-min Rain = 0
KFR1 100419Z 22003KT 01/M07 A3036 RMK A01 T00081067  RH  058%=      5-min Rain = 0
KFR1 100420Z 23003KT 01/M07 A3036 RMK A01 T00071067  RH  058%=      5-min Rain = 0
KFR1 100421Z 23004KT 01/M07 A3036 RMK A01 T00081067  RH  057%=      5-min Rain = 0
KFR1 100422Z 24004KT 01/M07 A3036 RMK A01 T00081067  RH  057%=      5-min Rain = 0
KFR1 100423Z 24006KT 01/M07 A3036 RMK A01 T00081067  RH  057%=      5-min Rain = 0
KFR1 100424Z 23006KT 01/M07 A3036 RMK A01 T00081068  RH  057%=      5-min Rain = 0
KFR1 100425Z 23006KT 01/M07 A3036 RMK A01 T00071069  RH  057%=      5-min Rain = 0
KFR1 100426Z 23006KT 01/M07 A3036 RMK A01 T00081068  RH  057%=      5-min Rain = 0
KFR1 100427Z 22007KT 01/M07 A3036 RMK A01 T00071069  RH  057%=      5-min Rain = 0
KFR1 100428Z 22007KT 01/M07 A3036 RMK A01 T00061069  RH  057%=      5-min Rain = 0
KFR1 100429Z 22006KT 01/M07 A3036 RMK A01 T00071068  RH  057%=      5-min Rain = 0
KFR1 100430Z 22005KT 01/M07 A3036 RMK A01 T00091068  RH  056%=      5-min Rain = 0
KFR1 100431Z 22007KT 01/M07 A3036 RMK A01 T00081069  RH  056%=      5-min Rain = 0
KFR1 100432Z 22007KT 01/M07 A3036 RMK A01 T00081068  RH  057%=      5-min Rain = 0
KFR1 100433Z 23006KT 01/M07 A3036 RMK A01 T00101068  RH  056%=      5-min Rain = 0
KFR1 100434Z 22007KT 01/M07 A3036 RMK A01 T00101068  RH  056%=      5-min Rain = 0
KFR1 100435Z 22006KT 01/M07 A3036 RMK A01 T00101068  RH  056%=      5-min Rain = 0
KFR1 100436Z 22005KT 01/M07 A3036 RMK A01 T00111068  RH  055%=      5-min Rain = 0
KFR1 100437Z 22006KT 01/M07 A3036 RMK A01 T00121068  RH  055%=      5-min Rain = 0
KFR1 100438Z 22007KT 01/M07 A3036 RMK A01 T00111069  RH  055%=      5-min Rain = 0
KFR1 100439Z 22008KT 01/M07 A3036 RMK A01 T00121069  RH  055%=      5-min Rain = 0
KFR1 100440Z 22007KT 01/M07 A3036 RMK A01 T00141067  RH  055%=      5-min Rain = 0
KFR1 100441Z 22007KT 02/M07 A3036 RMK A01 T00171067  RH  054%=      5-min Rain = 0
KFR1 100442Z 22007KT 02/M07 A3036 RMK A01 T00191067  RH  053%=      5-min Rain = 0
KFR1 100443Z 22006KT 02/M07 A3036 RMK A01 T00201067  RH  052%=      5-min Rain = 0
KFR1 100444Z 21005KT 02/M07 A3036 RMK A01 T00221068  RH  052%=      5-min Rain = 0
KFR1 100445Z 22006KT 02/M07 A3036 RMK A01 T00221068  RH  051%=      5-min Rain = 0
KFR1 100446Z 21005KT 02/M07 A3036 RMK A01 T00201069  RH  052%=      5-min Rain = 0
KFR1 100447Z 22004KT 02/M07 A3036 RMK A01 T00181069  RH  053%=      5-min Rain = 0
KFR1 100448Z 22004KT 02/M07 A3036 RMK A01 T00161069  RH  053%=      5-min Rain = 0
KFR1 100449Z 22004KT 02/M07 A3036 RMK A01 T00151069  RH  054%=      5-min Rain = 0
KFR1 100450Z 21003KT 02/M07 A3036 RMK A01 T00151069  RH  054%=      5-min Rain = 0
KFR1 100451Z 22003KT 02/M07 A3036 RMK A01 T00161068  RH  054%=      5-min Rain = 0
KFR1 100452Z 22004KT 02/M07 A3036 RMK A01 T00151069  RH  054%=      5-min Rain = 0
KFR1 100453Z 23005KT 01/M07 A3036 RMK A01 T00131070  RH  054%=      5-min Rain = 0
KFR1 100454Z 22005KT 01/M07 A3036 RMK A01 T00131069  RH  054%=      5-min Rain = 0
KFR1 100455Z 22006KT 01/M07 A3036 RMK A01 T00131069  RH  054%=      5-min Rain = 0
KFR1 100456Z 22005KT 01/M07 A3036 RMK A01 T00131069  RH  054%=      5-min Rain = 0
KFR1 100457Z 22005KT 01/M07 A3036 RMK A01 T00111070  RH  055%=      5-min Rain = 0
KFR1 100458Z 22005KT 01/M07 A3036 RMK A01 T00081070  RH  056%=      5-min Rain = 0
KFR1 100459Z 22005KT 01/M07 A3036 RMK A01 T00071070  RH  056%=      5-min Rain = 0
KFR1 100500Z 22005KT 01/M07 A3036 RMK A01 T00071070  RH  057%=      5-min Rain = 0
KFR1 100501Z 21005KT 01/M07 A3036 RMK A01 T00061069  RH  057%=      5-min Rain = 0
KFR1 100502Z 21004KT 01/M07 A3036 RMK A01 T00051070  RH  057%=      5-min Rain = 0
KFR1 100503Z 20004KT 00/M07 A3036 RMK A01 T00041070  RH  057%=      5-min Rain = 0
KFR1 100504Z 20005KT 00/M07 A3036 RMK A01 T00031071  RH  058%=      5-min Rain = 0
KFR1 100505Z 20004KT 00/M07 A3036 RMK A01 T00021071  RH  058%=      5-min Rain = 0
KFR1 100506Z 20004KT 00/M07 A3036 RMK A01 T00011071  RH  058%=      5-min Rain = 0
KFR1 100507Z 21004KT 00/M07 A3036 RMK A01 T00011071  RH  059%=      5-min Rain = 0
KFR1 100508Z 21005KT 00/07 A3036 RMK A01 T00000-71  RH  059%=      5-min Rain = 0
KFR1 100509Z 21004KT 00/07 A3036 RMK A01 T00000-70  RH  059%=      5-min Rain = 0
KFR1 100510Z 21004KT 00/M07 A3036 RMK A01 T00011070  RH  059%=      5-min Rain = 0
KFR1 100511Z 21004KT 00/07 A3036 RMK A01 T00000-70  RH  059%=      5-min Rain = 0
KFR1 100512Z 20004KT M00/M07 A3036 RMK A01 T10011070  RH  059%=      5-min Rain = 0
KFR1 100513Z 21005KT M00/M07 A3036 RMK A01 T10011070  RH  060%=      5-min Rain = 0
KFR1 100514Z 21005KT M00/M07 A3035 RMK A01 T10011070  RH  060%=      5-min Rain = 0
KFR1 100515Z 20005KT M00/M07 A3035 RMK A01 T10021070  RH  060%=      5-min Rain = 0
KFR1 100516Z 20005KT M00/M07 A3035 RMK A01 T10021070  RH  060%=      5-min Rain = 0
KFR1 100517Z 20004KT M00/M07 A3035 RMK A01 T10021069  RH  060%=      5-min Rain = 0
KFR1 100518Z 20004KT M00/M07 A3035 RMK A01 T10021070  RH  060%=      5-min Rain = 0
KFR1 100519Z 22003KT M00/M07 A3036 RMK A01 T10011069  RH  060%=      5-min Rain = 0
KFR1 100520Z 23005KT 00/07 A3036 RMK A01 T00000-68  RH  060%=      5-min Rain = 0
KFR1 100521Z 22007KT 00/07 A3036 RMK A01 T00000-69  RH  060%=      5-min Rain = 0
KFR1 100522Z 22006KT 00/M07 A3036 RMK A01 T00041066  RH  059%=      5-min Rain = 0
KFR1 100523Z 22008KT 01/M07 A3036 RMK A01 T00071066  RH  058%=      5-min Rain = 0
KFR1 100524Z 22006KT 01/M07 A3036 RMK A01 T00081066  RH  058%=      5-min Rain = 0
KFR1 100525Z 22006KT 01/M07 A3036 RMK A01 T00081067  RH  057%=      5-min Rain = 0
KFR1 100526Z 22005KT 01/M07 A3036 RMK A01 T00081066  RH  058%=      5-min Rain = 0
KFR1 100527Z 23006KT 01/M07 A3036 RMK A01 T00081066  RH  057%=      5-min Rain = 0
KFR1 100528Z 22006KT 01/M07 A3036 RMK A01 T00081067  RH  058%=      5-min Rain = 0
KFR1 100529Z 22005KT 01/M07 A3036 RMK A01 T00071066  RH  058%=      5-min Rain = 0
KFR1 100530Z 22005KT 01/M07 A3036 RMK A01 T00071066  RH  058%=      5-min Rain = 0
KFR1 100531Z 22005KT 01/M07 A3036 RMK A01 T00061066  RH  058%=      5-min Rain = 0
KFR1 100532Z 21006KT 01/M07 A3036 RMK A01 T00061066  RH  059%=      5-min Rain = 0
KFR1 100533Z 21005KT 01/M07 A3036 RMK A01 T00061066  RH  059%=      5-min Rain = 0
KFR1 100534Z 20005KT 01/M07 A3036 RMK A01 T00061066  RH  059%=      5-min Rain = 0
KFR1 100535Z 20004KT 00/M07 A3036 RMK A01 T00041067  RH  059%=      5-min Rain = 0
KFR1 100536Z 20004KT 00/M07 A3036 RMK A01 T00021068  RH  059%=      5-min Rain = 0
KFR1 100537Z 20004KT 00/07 A3036 RMK A01 T00000-68  RH  060%=      5-min Rain = 0
KFR1 100538Z 20005KT M00/M07 A3035 RMK A01 T10011068  RH  060%=      5-min Rain = 0
KFR1 100539Z 20004KT M00/M07 A3035 RMK A01 T10021068  RH  061%=      5-min Rain = 0
KFR1 100540Z 20004KT M00/M07 A3035 RMK A01 T10021068  RH  061%=      5-min Rain = 0
KFR1 100541Z 20004KT M00/M07 A3035 RMK A01 T10031069  RH  061%=      5-min Rain = 0
KFR1 100542Z 20004KT M00/M07 A3035 RMK A01 T10041069  RH  061%=      5-min Rain = 0
KFR1 100543Z 19003KT M01/M07 A3035 RMK A01 T10051069  RH  062%=      5-min Rain = 0
KFR1 100544Z 20003KT M01/M07 A3035 RMK A01 T10051069  RH  062%=      5-min Rain = 0
KFR1 100545Z 21003KT M01/M07 A3035 RMK A01 T10061068  RH  063%=      5-min Rain = 0
KFR1 100546Z 21003KT M01/M07 A3035 RMK A01 T10051068  RH  063%=      5-min Rain = 0
KFR1 100547Z 22003KT M01/M07 A3035 RMK A01 T10051067  RH  063%=      5-min Rain = 0
KFR1 100548Z 21004KT M00/M07 A3035 RMK A01 T10031067  RH  062%=      5-min Rain = 0
KFR1 100549Z 21004KT M00/M07 A3035 RMK A01 T10021066  RH  062%=      5-min Rain = 0
KFR1 100550Z 21004KT 00/07 A3035 RMK A01 T00-00-66  RH  061%=      5-min Rain = 0
KFR1 100551Z 22005KT 00/07 A3035 RMK A01 T00000-66  RH  061%=      5-min Rain = 0
KFR1 100552Z 22005KT 00/07 A3035 RMK A01 T00000-67  RH  061%=      5-min Rain = 0
KFR1 100553Z 21004KT 00/M07 A3035 RMK A01 T00011066  RH  061%=      5-min Rain = 0
KFR1 100554Z 21005KT 00/M07 A3035 RMK A01 T00011066  RH  060%=      5-min Rain = 0
KFR1 100555Z 21005KT 00/M07 A3035 RMK A01 T00011067  RH  060%=      5-min Rain = 0
KFR1 100556Z 21005KT 00/M07 A3035 RMK A01 T00011067  RH  060%=      5-min Rain = 0
KFR1 100557Z 21005KT 00/M07 A3035 RMK A01 T00021066  RH  060%=      5-min Rain = 0
KFR1 100558Z 22005KT 00/M07 A3035 RMK A01 T00021067  RH  060%=      5-min Rain = 0
KFR1 100559Z 22005KT 00/07 A3035 RMK A01 T00000-68  RH  060%=      5-min Rain = 0

Page generated in 0.138 seconds.